<?xml version='1.0' encoding='UTF-8'?>
<gpx version="1.1" creator="https://www.komoot.de" xmlns="http://www.topografix.com/GPX/1/1" xmlns:xsi="http://www.w3.org/2001/XMLSchema-instance" xsi:schemaLocation="http://www.topografix.com/GPX/1/1 http://www.topografix.com/GPX/1/1/gpx.xsd">
  <metadata>
    <name>Drei-Täler-Radweg-berichtigt</name>
    <author>
      <link href="https://www.komoot.de">
        <text>komoot</text>
        <type>text/html</type>
      </link>
    </author>
  </metadata>
  <trk>
    <name>Drei-Täler-Radweg-berichtigt</name>
    <trkseg>
      <trkpt lat="49.347167" lon="9.131681">
        <ele>148.911784</ele>
        <time>2021-01-05T19:24:29.916Z</time>
      </trkpt>
      <trkpt lat="49.347452" lon="9.132158">
        <ele>148.911784</ele>
        <time>2021-01-05T19:24:39.639Z</time>
      </trkpt>
      <trkpt lat="49.347720" lon="9.132455">
        <ele>148.911784</ele>
        <time>2021-01-05T19:24:47.412Z</time>
      </trkpt>
      <trkpt lat="49.348258" lon="9.132884">
        <ele>149.098320</ele>
        <time>2021-01-05T19:25:01.986Z</time>
      </trkpt>
      <trkpt lat="49.348492" lon="9.133052">
        <ele>149.203272</ele>
        <time>2021-01-05T19:25:08.088Z</time>
      </trkpt>
      <trkpt lat="49.349276" lon="9.133652">
        <ele>149.559181</ele>
        <time>2021-01-05T19:25:28.856Z</time>
      </trkpt>
      <trkpt lat="49.349689" lon="9.133966">
        <ele>149.830727</ele>
        <time>2021-01-05T19:25:40.432Z</time>
      </trkpt>
      <trkpt lat="49.349759" lon="9.134129">
        <ele>149.924322</ele>
        <time>2021-01-05T19:25:45.493Z</time>
      </trkpt>
      <trkpt lat="49.350912" lon="9.134898">
        <ele>150.849462</ele>
        <time>2021-01-05T19:26:36.106Z</time>
      </trkpt>
      <trkpt lat="49.351015" lon="9.134986">
        <ele>150.936210</ele>
        <time>2021-01-05T19:26:41.068Z</time>
      </trkpt>
      <trkpt lat="49.351051" lon="9.134949">
        <ele>150.968035</ele>
        <time>2021-01-05T19:26:42.100Z</time>
      </trkpt>
      <trkpt lat="49.351279" lon="9.135406">
        <ele>151.235735</ele>
        <time>2021-01-05T19:26:51.699Z</time>
      </trkpt>
      <trkpt lat="49.351338" lon="9.135525">
        <ele>151.305282</ele>
        <time>2021-01-05T19:26:54.076Z</time>
      </trkpt>
      <trkpt lat="49.351381" lon="9.135609">
        <ele>151.354964</ele>
        <time>2021-01-05T19:26:55.801Z</time>
      </trkpt>
      <trkpt lat="49.351404" lon="9.135710">
        <ele>151.404722</ele>
        <time>2021-01-05T19:26:57.697Z</time>
      </trkpt>
      <trkpt lat="49.351409" lon="9.135802">
        <ele>151.447655</ele>
        <time>2021-01-05T19:26:59.404Z</time>
      </trkpt>
      <trkpt lat="49.351397" lon="9.135938">
        <ele>151.511480</ele>
        <time>2021-01-05T19:27:01.631Z</time>
      </trkpt>
      <trkpt lat="49.351369" lon="9.136099">
        <ele>151.588975</ele>
        <time>2021-01-05T19:27:04.283Z</time>
      </trkpt>
      <trkpt lat="49.351356" lon="9.136146">
        <ele>151.612721</ele>
        <time>2021-01-05T19:27:05.104Z</time>
      </trkpt>
      <trkpt lat="49.351406" lon="9.136210">
        <ele>151.659197</ele>
        <time>2021-01-05T19:27:07.817Z</time>
      </trkpt>
      <trkpt lat="49.351506" lon="9.136601">
        <ele>151.854544</ele>
        <time>2021-01-05T19:27:18.880Z</time>
      </trkpt>
      <trkpt lat="49.351532" lon="9.136897">
        <ele>151.993445</ele>
        <time>2021-01-05T19:27:27.010Z</time>
      </trkpt>
      <trkpt lat="49.351470" lon="9.139064">
        <ele>152.475872</ele>
        <time>2021-01-05T19:28:21.120Z</time>
      </trkpt>
      <trkpt lat="49.351527" lon="9.139897">
        <ele>152.592754</ele>
        <time>2021-01-05T19:28:41.394Z</time>
      </trkpt>
      <trkpt lat="49.351557" lon="9.140005">
        <ele>152.609138</ele>
        <time>2021-01-05T19:28:44.335Z</time>
      </trkpt>
      <trkpt lat="49.351674" lon="9.140278">
        <ele>152.655024</ele>
        <time>2021-01-05T19:28:52.271Z</time>
      </trkpt>
      <trkpt lat="49.351886" lon="9.140570">
        <ele>152.716943</ele>
        <time>2021-01-05T19:29:03.006Z</time>
      </trkpt>
      <trkpt lat="49.352062" lon="9.140786">
        <ele>152.765928</ele>
        <time>2021-01-05T19:29:11.502Z</time>
      </trkpt>
      <trkpt lat="49.351898" lon="9.141075">
        <ele>152.820205</ele>
        <time>2021-01-05T19:29:20.850Z</time>
      </trkpt>
      <trkpt lat="49.352246" lon="9.141495">
        <ele>152.916438</ele>
        <time>2021-01-05T19:29:31.288Z</time>
      </trkpt>
      <trkpt lat="49.352457" lon="9.141749">
        <ele>152.974729</ele>
        <time>2021-01-05T19:29:37.483Z</time>
      </trkpt>
      <trkpt lat="49.353022" lon="9.142431">
        <ele>153.211435</ele>
        <time>2021-01-05T19:29:54.464Z</time>
      </trkpt>
      <trkpt lat="49.353229" lon="9.142056">
        <ele>153.334672</ele>
        <time>2021-01-05T19:30:02.084Z</time>
      </trkpt>
      <trkpt lat="49.353256" lon="9.142105">
        <ele>153.350763</ele>
        <time>2021-01-05T19:30:03.156Z</time>
      </trkpt>
      <trkpt lat="49.353294" lon="9.142160">
        <ele>153.370864</ele>
        <time>2021-01-05T19:30:04.522Z</time>
      </trkpt>
      <trkpt lat="49.353690" lon="9.142626">
        <ele>153.562909</ele>
        <time>2021-01-05T19:30:16.201Z</time>
      </trkpt>
      <trkpt lat="49.353825" lon="9.142872">
        <ele>153.643555</ele>
        <time>2021-01-05T19:30:21.046Z</time>
      </trkpt>
      <trkpt lat="49.353872" lon="9.143109">
        <ele>153.705667</ele>
        <time>2021-01-05T19:30:24.992Z</time>
      </trkpt>
      <trkpt lat="49.354213" lon="9.143996">
        <ele>154.089695</ele>
        <time>2021-01-05T19:30:41.296Z</time>
      </trkpt>
      <trkpt lat="49.354497" lon="9.144427">
        <ele>154.322306</ele>
        <time>2021-01-05T19:30:51.083Z</time>
      </trkpt>
      <trkpt lat="49.354590" lon="9.144705">
        <ele>154.440882</ele>
        <time>2021-01-05T19:30:55.945Z</time>
      </trkpt>
      <trkpt lat="49.354643" lon="9.144715">
        <ele>154.471986</ele>
        <time>2021-01-05T19:30:57.717Z</time>
      </trkpt>
      <trkpt lat="49.354750" lon="9.144823">
        <ele>154.546576</ele>
        <time>2021-01-05T19:31:01.915Z</time>
      </trkpt>
      <trkpt lat="49.354819" lon="9.144893">
        <ele>154.594750</ele>
        <time>2021-01-05T19:31:04.536Z</time>
      </trkpt>
      <trkpt lat="49.354849" lon="9.144836">
        <ele>154.622554</ele>
        <time>2021-01-05T19:31:06.007Z</time>
      </trkpt>
      <trkpt lat="49.354913" lon="9.144687">
        <ele>154.690272</ele>
        <time>2021-01-05T19:31:09.740Z</time>
      </trkpt>
      <trkpt lat="49.354988" lon="9.144507">
        <ele>154.774901</ele>
        <time>2021-01-05T19:31:14.341Z</time>
      </trkpt>
      <trkpt lat="49.355016" lon="9.144429">
        <ele>154.833645</ele>
        <time>2021-01-05T19:31:16.202Z</time>
      </trkpt>
      <trkpt lat="49.355146" lon="9.144169">
        <ele>155.049840</ele>
        <time>2021-01-05T19:31:23.195Z</time>
      </trkpt>
      <trkpt lat="49.355634" lon="9.144381">
        <ele>155.563408</ele>
        <time>2021-01-05T19:31:39.819Z</time>
      </trkpt>
      <trkpt lat="49.356637" lon="9.145269">
        <ele>156.688767</ele>
        <time>2021-01-05T19:32:19.360Z</time>
      </trkpt>
      <trkpt lat="49.356793" lon="9.145386">
        <ele>156.808625</ele>
        <time>2021-01-05T19:32:25.150Z</time>
      </trkpt>
      <trkpt lat="49.357455" lon="9.145686">
        <ele>157.285130</ele>
        <time>2021-01-05T19:32:47.807Z</time>
      </trkpt>
      <trkpt lat="49.358442" lon="9.146032">
        <ele>157.751886</ele>
        <time>2021-01-05T19:33:18.981Z</time>
      </trkpt>
      <trkpt lat="49.358695" lon="9.146094">
        <ele>157.662911</ele>
        <time>2021-01-05T19:33:26.377Z</time>
      </trkpt>
      <trkpt lat="49.359803" lon="9.146440">
        <ele>157.270241</ele>
        <time>2021-01-05T19:33:50.409Z</time>
      </trkpt>
      <trkpt lat="49.360180" lon="9.146556">
        <ele>157.275558</ele>
        <time>2021-01-05T19:33:58.495Z</time>
      </trkpt>
      <trkpt lat="49.360350" lon="9.146660">
        <ele>157.341328</ele>
        <time>2021-01-05T19:34:02.292Z</time>
      </trkpt>
      <trkpt lat="49.360701" lon="9.146765">
        <ele>157.469851</ele>
        <time>2021-01-05T19:34:10.246Z</time>
      </trkpt>
      <trkpt lat="49.364829" lon="9.148047">
        <ele>159.281804</ele>
        <time>2021-01-05T19:35:57.870Z</time>
      </trkpt>
      <trkpt lat="49.365725" lon="9.148439">
        <ele>159.857940</ele>
        <time>2021-01-05T19:36:21.350Z</time>
      </trkpt>
      <trkpt lat="49.366741" lon="9.149128">
        <ele>160.584013</ele>
        <time>2021-01-05T19:36:49.920Z</time>
      </trkpt>
      <trkpt lat="49.366914" lon="9.149241">
        <ele>160.706914</ele>
        <time>2021-01-05T19:36:54.740Z</time>
      </trkpt>
      <trkpt lat="49.367459" lon="9.149760">
        <ele>161.366013</ele>
        <time>2021-01-05T19:37:11.290Z</time>
      </trkpt>
      <trkpt lat="49.370086" lon="9.152153">
        <ele>164.707559</ele>
        <time>2021-01-05T19:38:33.583Z</time>
      </trkpt>
      <trkpt lat="49.370612" lon="9.152702">
        <ele>165.117598</ele>
        <time>2021-01-05T19:38:49.925Z</time>
      </trkpt>
      <trkpt lat="49.371113" lon="9.153439">
        <ele>165.564889</ele>
        <time>2021-01-05T19:39:06.804Z</time>
      </trkpt>
      <trkpt lat="49.371117" lon="9.153597">
        <ele>165.631271</ele>
        <time>2021-01-05T19:39:09.248Z</time>
      </trkpt>
      <trkpt lat="49.370900" lon="9.153878">
        <ele>165.814475</ele>
        <time>2021-01-05T19:39:15.745Z</time>
      </trkpt>
      <trkpt lat="49.370851" lon="9.154003">
        <ele>165.901368</ele>
        <time>2021-01-05T19:39:17.910Z</time>
      </trkpt>
      <trkpt lat="49.370909" lon="9.154033">
        <ele>165.957343</ele>
        <time>2021-01-05T19:39:19.318Z</time>
      </trkpt>
      <trkpt lat="49.371327" lon="9.154184">
        <ele>166.350082</ele>
        <time>2021-01-05T19:39:29.576Z</time>
      </trkpt>
      <trkpt lat="49.371567" lon="9.154459">
        <ele>166.623952</ele>
        <time>2021-01-05T19:39:37.108Z</time>
      </trkpt>
      <trkpt lat="49.371634" lon="9.154625">
        <ele>166.740264</ele>
        <time>2021-01-05T19:39:40.552Z</time>
      </trkpt>
      <trkpt lat="49.371634" lon="9.154625">
        <ele>166.740264</ele>
        <time>2021-01-05T19:39:40.556Z</time>
      </trkpt>
      <trkpt lat="49.371814" lon="9.154873">
        <ele>166.961434</ele>
        <time>2021-01-05T19:39:47.545Z</time>
      </trkpt>
      <trkpt lat="49.371968" lon="9.155267">
        <ele>167.235106</ele>
        <time>2021-01-05T19:39:56.089Z</time>
      </trkpt>
      <trkpt lat="49.372043" lon="9.155462">
        <ele>167.369982</ele>
        <time>2021-01-05T19:40:00.230Z</time>
      </trkpt>
      <trkpt lat="49.372065" lon="9.155518">
        <ele>167.408932</ele>
        <time>2021-01-05T19:40:01.460Z</time>
      </trkpt>
      <trkpt lat="49.372375" lon="9.155848">
        <ele>167.909959</ele>
        <time>2021-01-05T19:40:12.164Z</time>
      </trkpt>
      <trkpt lat="49.372826" lon="9.156083">
        <ele>168.575902</ele>
        <time>2021-01-05T19:40:25.432Z</time>
      </trkpt>
      <trkpt lat="49.372884" lon="9.156110">
        <ele>168.660648</ele>
        <time>2021-01-05T19:40:27.365Z</time>
      </trkpt>
      <trkpt lat="49.373516" lon="9.156225">
        <ele>169.550556</ele>
        <time>2021-01-05T19:40:45.113Z</time>
      </trkpt>
      <trkpt lat="49.374632" lon="9.156734">
        <ele>170.724615</ele>
        <time>2021-01-05T19:41:15.953Z</time>
      </trkpt>
      <trkpt lat="49.374834" lon="9.156546">
        <ele>170.930457</ele>
        <time>2021-01-05T19:41:21.667Z</time>
      </trkpt>
      <trkpt lat="49.375906" lon="9.158008">
        <ele>172.055586</ele>
        <time>2021-01-05T19:41:57.937Z</time>
      </trkpt>
      <trkpt lat="49.376206" lon="9.158704">
        <ele>172.437022</ele>
        <time>2021-01-05T19:42:11.859Z</time>
      </trkpt>
      <trkpt lat="49.376621" lon="9.159511">
        <ele>172.829859</ele>
        <time>2021-01-05T19:42:28.290Z</time>
      </trkpt>
      <trkpt lat="49.376745" lon="9.159731">
        <ele>172.863458</ele>
        <time>2021-01-05T19:42:32.712Z</time>
      </trkpt>
      <trkpt lat="49.376985" lon="9.160348">
        <ele>172.946446</ele>
        <time>2021-01-05T19:42:44.338Z</time>
      </trkpt>
      <trkpt lat="49.377369" lon="9.161282">
        <ele>173.073993</ele>
        <time>2021-01-05T19:43:00.146Z</time>
      </trkpt>
      <trkpt lat="49.377693" lon="9.162120">
        <ele>173.132000</ele>
        <time>2021-01-05T19:43:13.677Z</time>
      </trkpt>
      <trkpt lat="49.377768" lon="9.162379">
        <ele>173.136737</ele>
        <time>2021-01-05T19:43:17.740Z</time>
      </trkpt>
      <trkpt lat="49.377822" lon="9.162646">
        <ele>173.141408</ele>
        <time>2021-01-05T19:43:21.785Z</time>
      </trkpt>
      <trkpt lat="49.377955" lon="9.163018">
        <ele>173.148500</ele>
        <time>2021-01-05T19:43:28.087Z</time>
      </trkpt>
      <trkpt lat="49.378037" lon="9.163244">
        <ele>173.152823</ele>
        <time>2021-01-05T19:43:32.153Z</time>
      </trkpt>
      <trkpt lat="49.378072" lon="9.163328">
        <ele>173.154490</ele>
        <time>2021-01-05T19:43:33.817Z</time>
      </trkpt>
      <trkpt lat="49.378103" lon="9.163382">
        <ele>173.155693</ele>
        <time>2021-01-05T19:43:34.894Z</time>
      </trkpt>
      <trkpt lat="49.378103" lon="9.163452">
        <ele>173.156862</ele>
        <time>2021-01-05T19:43:35.788Z</time>
      </trkpt>
      <trkpt lat="49.378205" lon="9.163968">
        <ele>173.165873</ele>
        <time>2021-01-05T19:43:43.819Z</time>
      </trkpt>
      <trkpt lat="49.378167" lon="9.164487">
        <ele>173.165120</ele>
        <time>2021-01-05T19:43:51.267Z</time>
      </trkpt>
      <trkpt lat="49.378166" lon="9.164546">
        <ele>173.164455</ele>
        <time>2021-01-05T19:43:51.975Z</time>
      </trkpt>
      <trkpt lat="49.378164" lon="9.164829">
        <ele>173.161268</ele>
        <time>2021-01-05T19:43:56.133Z</time>
      </trkpt>
      <trkpt lat="49.378148" lon="9.164919">
        <ele>173.160218</ele>
        <time>2021-01-05T19:43:57.638Z</time>
      </trkpt>
      <trkpt lat="49.378420" lon="9.165193">
        <ele>173.154593</ele>
        <time>2021-01-05T19:44:04.878Z</time>
      </trkpt>
      <trkpt lat="49.379431" lon="9.166890">
        <ele>173.244516</ele>
        <time>2021-01-05T19:44:37.882Z</time>
      </trkpt>
      <trkpt lat="49.379691" lon="9.167777">
        <ele>173.372394</ele>
        <time>2021-01-05T19:44:52.152Z</time>
      </trkpt>
      <trkpt lat="49.379796" lon="9.168155">
        <ele>173.426420</ele>
        <time>2021-01-05T19:44:58.590Z</time>
      </trkpt>
      <trkpt lat="49.379992" lon="9.169076">
        <ele>173.717253</ele>
        <time>2021-01-05T19:45:14.140Z</time>
      </trkpt>
      <trkpt lat="49.380169" lon="9.170458">
        <ele>174.475799</ele>
        <time>2021-01-05T19:45:38.326Z</time>
      </trkpt>
      <trkpt lat="49.380159" lon="9.170892">
        <ele>174.709677</ele>
        <time>2021-01-05T19:45:45.612Z</time>
      </trkpt>
      <trkpt lat="49.380121" lon="9.171186">
        <ele>174.871101</ele>
        <time>2021-01-05T19:45:50.656Z</time>
      </trkpt>
      <trkpt lat="49.380031" lon="9.172427">
        <ele>175.283220</ele>
        <time>2021-01-05T19:46:10.953Z</time>
      </trkpt>
      <trkpt lat="49.380141" lon="9.173753">
        <ele>175.665211</ele>
        <time>2021-01-05T19:46:31.662Z</time>
      </trkpt>
      <trkpt lat="49.379905" lon="9.176940">
        <ele>175.922384</ele>
        <time>2021-01-05T19:47:18.512Z</time>
      </trkpt>
      <trkpt lat="49.379923" lon="9.177367">
        <ele>176.040285</ele>
        <time>2021-01-05T19:47:24.864Z</time>
      </trkpt>
      <trkpt lat="49.380140" lon="9.178034">
        <ele>176.245738</ele>
        <time>2021-01-05T19:47:36.035Z</time>
      </trkpt>
      <trkpt lat="49.380516" lon="9.178497">
        <ele>176.449694</ele>
        <time>2021-01-05T19:47:47.631Z</time>
      </trkpt>
      <trkpt lat="49.380618" lon="9.178730">
        <ele>176.527058</ele>
        <time>2021-01-05T19:47:52.183Z</time>
      </trkpt>
      <trkpt lat="49.381013" lon="9.180034">
        <ele>177.297699</ele>
        <time>2021-01-05T19:48:16.510Z</time>
      </trkpt>
      <trkpt lat="49.381063" lon="9.180127">
        <ele>177.380074</ele>
        <time>2021-01-05T19:48:18.487Z</time>
      </trkpt>
      <trkpt lat="49.381260" lon="9.180496">
        <ele>177.705992</ele>
        <time>2021-01-05T19:48:26.867Z</time>
      </trkpt>
      <trkpt lat="49.381410" lon="9.180771">
        <ele>177.951016</ele>
        <time>2021-01-05T19:48:33.200Z</time>
      </trkpt>
      <trkpt lat="49.381583" lon="9.181279">
        <ele>178.342563</ele>
        <time>2021-01-05T19:48:43.185Z</time>
      </trkpt>
      <trkpt lat="49.382090" lon="9.182141">
        <ele>179.266494</ele>
        <time>2021-01-05T19:49:03.670Z</time>
      </trkpt>
      <trkpt lat="49.382309" lon="9.182479">
        <ele>179.665618</ele>
        <time>2021-01-05T19:49:12.146Z</time>
      </trkpt>
      <trkpt lat="49.382695" lon="9.182909">
        <ele>180.278635</ele>
        <time>2021-01-05T19:49:25.519Z</time>
      </trkpt>
      <trkpt lat="49.383223" lon="9.183659">
        <ele>181.304407</ele>
        <time>2021-01-05T19:49:46.208Z</time>
      </trkpt>
      <trkpt lat="49.383672" lon="9.184185">
        <ele>182.250541</ele>
        <time>2021-01-05T19:50:02.866Z</time>
      </trkpt>
      <trkpt lat="49.384146" lon="9.184707">
        <ele>183.227761</ele>
        <time>2021-01-05T19:50:20.576Z</time>
      </trkpt>
      <trkpt lat="49.385164" lon="9.185153">
        <ele>184.740372</ele>
        <time>2021-01-05T19:50:53.276Z</time>
      </trkpt>
      <trkpt lat="49.385843" lon="9.185702">
        <ele>185.725845</ele>
        <time>2021-01-05T19:51:14.777Z</time>
      </trkpt>
      <trkpt lat="49.386438" lon="9.186727">
        <ele>186.351329</ele>
        <time>2021-01-05T19:51:37.092Z</time>
      </trkpt>
      <trkpt lat="49.386343" lon="9.186947">
        <ele>186.402588</ele>
        <time>2021-01-05T19:51:40.997Z</time>
      </trkpt>
      <trkpt lat="49.386308" lon="9.187264">
        <ele>186.465015</ele>
        <time>2021-01-05T19:51:45.994Z</time>
      </trkpt>
      <trkpt lat="49.386314" lon="9.187534">
        <ele>186.517468</ele>
        <time>2021-01-05T19:51:50.002Z</time>
      </trkpt>
      <trkpt lat="49.386352" lon="9.187919">
        <ele>186.593073</ele>
        <time>2021-01-05T19:51:55.927Z</time>
      </trkpt>
      <trkpt lat="49.386357" lon="9.187963">
        <ele>186.601745</ele>
        <time>2021-01-05T19:51:56.616Z</time>
      </trkpt>
      <trkpt lat="49.386487" lon="9.188402">
        <ele>186.695385</ele>
        <time>2021-01-05T19:52:03.795Z</time>
      </trkpt>
      <trkpt lat="49.386530" lon="9.188689">
        <ele>186.772498</ele>
        <time>2021-01-05T19:52:08.046Z</time>
      </trkpt>
      <trkpt lat="49.386530" lon="9.188689">
        <ele>186.772498</ele>
        <time>2021-01-05T19:52:08.061Z</time>
      </trkpt>
      <trkpt lat="49.386536" lon="9.188747">
        <ele>186.793840</ele>
        <time>2021-01-05T19:52:09.045Z</time>
      </trkpt>
      <trkpt lat="49.386552" lon="9.188892">
        <ele>186.847284</ele>
        <time>2021-01-05T19:52:11.134Z</time>
      </trkpt>
      <trkpt lat="49.386654" lon="9.189283">
        <ele>187.000358</ele>
        <time>2021-01-05T19:52:17.245Z</time>
      </trkpt>
      <trkpt lat="49.386633" lon="9.189439">
        <ele>187.058247</ele>
        <time>2021-01-05T19:52:19.643Z</time>
      </trkpt>
      <trkpt lat="49.386563" lon="9.189549">
        <ele>187.114149</ele>
        <time>2021-01-05T19:52:22.109Z</time>
      </trkpt>
      <trkpt lat="49.386633" lon="9.189439">
        <ele>187.170050</ele>
        <time>2021-01-05T19:52:24.554Z</time>
      </trkpt>
      <trkpt lat="49.386708" lon="9.189394">
        <ele>187.215000</ele>
        <time>2021-01-05T19:52:26.770Z</time>
      </trkpt>
      <trkpt lat="49.387325" lon="9.189514">
        <ele>187.562193</ele>
        <time>2021-01-05T19:52:42.609Z</time>
      </trkpt>
      <trkpt lat="49.387863" lon="9.189536">
        <ele>187.856680</ele>
        <time>2021-01-05T19:52:56.544Z</time>
      </trkpt>
      <trkpt lat="49.388022" lon="9.189622">
        <ele>187.946430</ele>
        <time>2021-01-05T19:53:00.502Z</time>
      </trkpt>
      <trkpt lat="49.388129" lon="9.189672">
        <ele>188.005977</ele>
        <time>2021-01-05T19:53:03.457Z</time>
      </trkpt>
      <trkpt lat="49.388424" lon="9.189798">
        <ele>188.169001</ele>
        <time>2021-01-05T19:53:10.714Z</time>
      </trkpt>
      <trkpt lat="49.388706" lon="9.189916">
        <ele>188.324616</ele>
        <time>2021-01-05T19:53:17.634Z</time>
      </trkpt>
      <trkpt lat="49.389288" lon="9.190113">
        <ele>188.641921</ele>
        <time>2021-01-05T19:53:31.961Z</time>
      </trkpt>
      <trkpt lat="49.389756" lon="9.190555">
        <ele>189.148083</ele>
        <time>2021-01-05T19:53:45.314Z</time>
      </trkpt>
      <trkpt lat="49.390094" lon="9.191129">
        <ele>189.652231</ele>
        <time>2021-01-05T19:53:57.755Z</time>
      </trkpt>
      <trkpt lat="49.390799" lon="9.192708">
        <ele>191.215487</ele>
        <time>2021-01-05T19:54:33.053Z</time>
      </trkpt>
      <trkpt lat="49.391151" lon="9.193186">
        <ele>192.049712</ele>
        <time>2021-01-05T19:54:46.864Z</time>
      </trkpt>
      <trkpt lat="49.391336" lon="9.193361">
        <ele>192.435498</ele>
        <time>2021-01-05T19:54:53.488Z</time>
      </trkpt>
      <trkpt lat="49.391410" lon="9.193445">
        <ele>192.598878</ele>
        <time>2021-01-05T19:54:56.262Z</time>
      </trkpt>
      <trkpt lat="49.391608" lon="9.193674">
        <ele>193.038963</ele>
        <time>2021-01-05T19:55:03.596Z</time>
      </trkpt>
      <trkpt lat="49.392229" lon="9.194441">
        <ele>194.313847</ele>
        <time>2021-01-05T19:55:27.148Z</time>
      </trkpt>
      <trkpt lat="49.392483" lon="9.194761">
        <ele>194.790901</ele>
        <time>2021-01-05T19:55:36.796Z</time>
      </trkpt>
      <trkpt lat="49.393139" lon="9.195679">
        <ele>196.079581</ele>
        <time>2021-01-05T19:56:00.690Z</time>
      </trkpt>
      <trkpt lat="49.393783" lon="9.196369">
        <ele>197.561637</ele>
        <time>2021-01-05T19:56:21.915Z</time>
      </trkpt>
      <trkpt lat="49.394704" lon="9.196756">
        <ele>199.462169</ele>
        <time>2021-01-05T19:56:51.910Z</time>
      </trkpt>
      <trkpt lat="49.395071" lon="9.196817">
        <ele>200.423453</ele>
        <time>2021-01-05T19:57:04.206Z</time>
      </trkpt>
      <trkpt lat="49.395183" lon="9.196857">
        <ele>200.814640</ele>
        <time>2021-01-05T19:57:08.068Z</time>
      </trkpt>
      <trkpt lat="49.395321" lon="9.196965">
        <ele>201.341514</ele>
        <time>2021-01-05T19:57:12.892Z</time>
      </trkpt>
      <trkpt lat="49.395354" lon="9.196989">
        <ele>201.465722</ele>
        <time>2021-01-05T19:57:14.985Z</time>
      </trkpt>
      <trkpt lat="49.395550" lon="9.196858">
        <ele>202.192877</ele>
        <time>2021-01-05T19:57:22.156Z</time>
      </trkpt>
      <trkpt lat="49.395913" lon="9.196117">
        <ele>204.246392</ele>
        <time>2021-01-05T19:57:44.603Z</time>
      </trkpt>
      <trkpt lat="49.396330" lon="9.194845">
        <ele>206.864514</ele>
        <time>2021-01-05T19:58:19.725Z</time>
      </trkpt>
      <trkpt lat="49.396843" lon="9.193525">
        <ele>208.969912</ele>
        <time>2021-01-05T19:58:51.452Z</time>
      </trkpt>
      <trkpt lat="49.397225" lon="9.192777">
        <ele>209.411543</ele>
        <time>2021-01-05T19:59:06.758Z</time>
      </trkpt>
      <trkpt lat="49.397702" lon="9.191240">
        <ele>207.655350</ele>
        <time>2021-01-05T19:59:26.039Z</time>
      </trkpt>
      <trkpt lat="49.397814" lon="9.191035">
        <ele>207.379301</ele>
        <time>2021-01-05T19:59:29.009Z</time>
      </trkpt>
      <trkpt lat="49.397903" lon="9.190974">
        <ele>207.224866</ele>
        <time>2021-01-05T19:59:30.693Z</time>
      </trkpt>
      <trkpt lat="49.398748" lon="9.190815">
        <ele>206.315313</ele>
        <time>2021-01-05T19:59:45.344Z</time>
      </trkpt>
      <trkpt lat="49.399065" lon="9.190791">
        <ele>206.021886</ele>
        <time>2021-01-05T19:59:51.270Z</time>
      </trkpt>
      <trkpt lat="49.399944" lon="9.190810">
        <ele>205.425611</ele>
        <time>2021-01-05T20:00:09.531Z</time>
      </trkpt>
      <trkpt lat="49.401384" lon="9.191068">
        <ele>209.020165</ele>
        <time>2021-01-05T20:00:58.249Z</time>
      </trkpt>
      <trkpt lat="49.401445" lon="9.191128">
        <ele>209.199739</ele>
        <time>2021-01-05T20:01:00.858Z</time>
      </trkpt>
      <trkpt lat="49.402511" lon="9.192174">
        <ele>213.023048</ele>
        <time>2021-01-05T20:01:46.404Z</time>
      </trkpt>
      <trkpt lat="49.403588" lon="9.193329">
        <ele>216.421323</ele>
        <time>2021-01-05T20:02:30.364Z</time>
      </trkpt>
      <trkpt lat="49.403772" lon="9.193825">
        <ele>217.115634</ele>
        <time>2021-01-05T20:02:41.261Z</time>
      </trkpt>
      <trkpt lat="49.403828" lon="9.194185">
        <ele>217.565760</ele>
        <time>2021-01-05T20:02:48.270Z</time>
      </trkpt>
      <trkpt lat="49.403826" lon="9.194671">
        <ele>218.156789</ele>
        <time>2021-01-05T20:02:56.368Z</time>
      </trkpt>
      <trkpt lat="49.403575" lon="9.195522">
        <ele>219.183423</ele>
        <time>2021-01-05T20:03:13.220Z</time>
      </trkpt>
      <trkpt lat="49.403414" lon="9.196306">
        <ele>219.990692</ele>
        <time>2021-01-05T20:03:27.977Z</time>
      </trkpt>
      <trkpt lat="49.403406" lon="9.196463">
        <ele>220.145329</ele>
        <time>2021-01-05T20:03:32.687Z</time>
      </trkpt>
      <trkpt lat="49.403638" lon="9.196625">
        <ele>220.529862</ele>
        <time>2021-01-05T20:03:38.419Z</time>
      </trkpt>
      <trkpt lat="49.403707" lon="9.196759">
        <ele>220.697654</ele>
        <time>2021-01-05T20:03:44.946Z</time>
      </trkpt>
      <trkpt lat="49.403712" lon="9.197098">
        <ele>221.030617</ele>
        <time>2021-01-05T20:03:52.944Z</time>
      </trkpt>
      <trkpt lat="49.403654" lon="9.197383">
        <ele>221.323837</ele>
        <time>2021-01-05T20:04:02.286Z</time>
      </trkpt>
      <trkpt lat="49.403544" lon="9.197943">
        <ele>221.582568</ele>
        <time>2021-01-05T20:04:18.043Z</time>
      </trkpt>
      <trkpt lat="49.403368" lon="9.198270">
        <ele>221.713503</ele>
        <time>2021-01-05T20:04:29.606Z</time>
      </trkpt>
      <trkpt lat="49.402705" lon="9.199646">
        <ele>222.241782</ele>
        <time>2021-01-05T20:05:12.294Z</time>
      </trkpt>
      <trkpt lat="49.402281" lon="9.200879">
        <ele>221.842271</ele>
        <time>2021-01-05T20:05:43.348Z</time>
      </trkpt>
      <trkpt lat="49.402045" lon="9.201855">
        <ele>221.464395</ele>
        <time>2021-01-05T20:06:06.838Z</time>
      </trkpt>
      <trkpt lat="49.402013" lon="9.202444">
        <ele>221.333636</ele>
        <time>2021-01-05T20:06:20.592Z</time>
      </trkpt>
      <trkpt lat="49.402040" lon="9.203463">
        <ele>221.784172</ele>
        <time>2021-01-05T20:06:45.359Z</time>
      </trkpt>
      <trkpt lat="49.402155" lon="9.204017">
        <ele>222.041062</ele>
        <time>2021-01-05T20:07:00.376Z</time>
      </trkpt>
      <trkpt lat="49.402409" lon="9.205244">
        <ele>222.976590</ele>
        <time>2021-01-05T20:07:35.960Z</time>
      </trkpt>
      <trkpt lat="49.402836" lon="9.206251">
        <ele>225.431963</ele>
        <time>2021-01-05T20:08:12.977Z</time>
      </trkpt>
      <trkpt lat="49.403081" lon="9.206538">
        <ele>226.399077</ele>
        <time>2021-01-05T20:08:29.186Z</time>
      </trkpt>
      <trkpt lat="49.403212" lon="9.206570">
        <ele>226.815490</ele>
        <time>2021-01-05T20:08:35.754Z</time>
      </trkpt>
      <trkpt lat="49.404028" lon="9.206419">
        <ele>229.600318</ele>
        <time>2021-01-05T20:09:21.576Z</time>
      </trkpt>
      <trkpt lat="49.404103" lon="9.206401">
        <ele>229.877934</ele>
        <time>2021-01-05T20:09:26.549Z</time>
      </trkpt>
      <trkpt lat="49.404926" lon="9.206118">
        <ele>232.962250</ele>
        <time>2021-01-05T20:10:10.032Z</time>
      </trkpt>
      <trkpt lat="49.405193" lon="9.205946">
        <ele>234.021046</ele>
        <time>2021-01-05T20:10:24.790Z</time>
      </trkpt>
      <trkpt lat="49.405224" lon="9.205849">
        <ele>234.278222</ele>
        <time>2021-01-05T20:10:27.793Z</time>
      </trkpt>
      <trkpt lat="49.405234" lon="9.205755">
        <ele>234.504890</ele>
        <time>2021-01-05T20:10:31.853Z</time>
      </trkpt>
      <trkpt lat="49.405669" lon="9.205773">
        <ele>235.130179</ele>
        <time>2021-01-05T20:10:51.362Z</time>
      </trkpt>
      <trkpt lat="49.406296" lon="9.205852">
        <ele>235.800193</ele>
        <time>2021-01-05T20:11:16.293Z</time>
      </trkpt>
      <trkpt lat="49.406607" lon="9.205954">
        <ele>236.138875</ele>
        <time>2021-01-05T20:11:28.106Z</time>
      </trkpt>
      <trkpt lat="49.406988" lon="9.206184">
        <ele>236.574833</ele>
        <time>2021-01-05T20:11:44.149Z</time>
      </trkpt>
      <trkpt lat="49.407468" lon="9.206620">
        <ele>237.642721</ele>
        <time>2021-01-05T20:12:06.130Z</time>
      </trkpt>
      <trkpt lat="49.407858" lon="9.206870">
        <ele>238.503176</ele>
        <time>2021-01-05T20:12:24.561Z</time>
      </trkpt>
      <trkpt lat="49.407912" lon="9.206869">
        <ele>238.613143</ele>
        <time>2021-01-05T20:12:28.058Z</time>
      </trkpt>
      <trkpt lat="49.408487" lon="9.207697">
        <ele>240.217637</ele>
        <time>2021-01-05T20:13:05.835Z</time>
      </trkpt>
      <trkpt lat="49.408897" lon="9.208136">
        <ele>241.602792</ele>
        <time>2021-01-05T20:13:30.909Z</time>
      </trkpt>
      <trkpt lat="49.409294" lon="9.208327">
        <ele>242.786994</ele>
        <time>2021-01-05T20:13:52.295Z</time>
      </trkpt>
      <trkpt lat="49.409535" lon="9.208590">
        <ele>243.628390</ele>
        <time>2021-01-05T20:14:06.579Z</time>
      </trkpt>
      <trkpt lat="49.409817" lon="9.209036">
        <ele>244.780262</ele>
        <time>2021-01-05T20:14:26.036Z</time>
      </trkpt>
      <trkpt lat="49.411065" lon="9.211340">
        <ele>248.585856</ele>
        <time>2021-01-05T20:15:53.343Z</time>
      </trkpt>
      <trkpt lat="49.411609" lon="9.212324">
        <ele>249.510122</ele>
        <time>2021-01-05T20:16:28.282Z</time>
      </trkpt>
      <trkpt lat="49.412236" lon="9.213110">
        <ele>250.340642</ele>
        <time>2021-01-05T20:17:01.278Z</time>
      </trkpt>
      <trkpt lat="49.412408" lon="9.213225">
        <ele>250.533176</ele>
        <time>2021-01-05T20:17:08.834Z</time>
      </trkpt>
      <trkpt lat="49.412627" lon="9.213252">
        <ele>250.600221</ele>
        <time>2021-01-05T20:17:17.340Z</time>
      </trkpt>
      <trkpt lat="49.412859" lon="9.213279">
        <ele>250.635348</ele>
        <time>2021-01-05T20:17:26.945Z</time>
      </trkpt>
      <trkpt lat="49.414906" lon="9.213206">
        <ele>250.281207</ele>
        <time>2021-01-05T20:18:42.111Z</time>
      </trkpt>
      <trkpt lat="49.415119" lon="9.213244">
        <ele>250.098928</ele>
        <time>2021-01-05T20:18:49.166Z</time>
      </trkpt>
      <trkpt lat="49.415749" lon="9.213530">
        <ele>249.540520</ele>
        <time>2021-01-05T20:19:10.796Z</time>
      </trkpt>
      <trkpt lat="49.416616" lon="9.214349">
        <ele>249.181018</ele>
        <time>2021-01-05T20:19:44.579Z</time>
      </trkpt>
      <trkpt lat="49.417210" lon="9.215192">
        <ele>249.036631</ele>
        <time>2021-01-05T20:20:14.183Z</time>
      </trkpt>
      <trkpt lat="49.417525" lon="9.215738">
        <ele>249.522124</ele>
        <time>2021-01-05T20:20:34.994Z</time>
      </trkpt>
      <trkpt lat="49.417796" lon="9.216356">
        <ele>250.599908</ele>
        <time>2021-01-05T20:20:57.434Z</time>
      </trkpt>
      <trkpt lat="49.417876" lon="9.216557">
        <ele>250.940664</ele>
        <time>2021-01-05T20:21:04.865Z</time>
      </trkpt>
      <trkpt lat="49.417953" lon="9.216845">
        <ele>251.390947</ele>
        <time>2021-01-05T20:21:14.375Z</time>
      </trkpt>
      <trkpt lat="49.417936" lon="9.217429">
        <ele>252.236323</ele>
        <time>2021-01-05T20:21:32.841Z</time>
      </trkpt>
      <trkpt lat="49.417955" lon="9.218167">
        <ele>253.211365</ele>
        <time>2021-01-05T20:21:56.475Z</time>
      </trkpt>
      <trkpt lat="49.418175" lon="9.220678">
        <ele>255.782300</ele>
        <time>2021-01-05T20:23:08.539Z</time>
      </trkpt>
      <trkpt lat="49.418279" lon="9.221307">
        <ele>255.512019</ele>
        <time>2021-01-05T20:23:23.508Z</time>
      </trkpt>
      <trkpt lat="49.418415" lon="9.221750">
        <ele>255.290792</ele>
        <time>2021-01-05T20:23:34.448Z</time>
      </trkpt>
      <trkpt lat="49.419249" lon="9.223342">
        <ele>254.351967</ele>
        <time>2021-01-05T20:24:18.790Z</time>
      </trkpt>
      <trkpt lat="49.419487" lon="9.223613">
        <ele>254.128579</ele>
        <time>2021-01-05T20:24:28.692Z</time>
      </trkpt>
      <trkpt lat="49.420573" lon="9.224141">
        <ele>253.269494</ele>
        <time>2021-01-05T20:25:08.514Z</time>
      </trkpt>
      <trkpt lat="49.420872" lon="9.224351">
        <ele>253.073072</ele>
        <time>2021-01-05T20:25:20.254Z</time>
      </trkpt>
      <trkpt lat="49.421143" lon="9.224736">
        <ele>252.878471</ele>
        <time>2021-01-05T20:25:33.124Z</time>
      </trkpt>
      <trkpt lat="49.421355" lon="9.225444">
        <ele>252.611094</ele>
        <time>2021-01-05T20:25:50.976Z</time>
      </trkpt>
      <trkpt lat="49.421667" lon="9.225764">
        <ele>252.413296</ele>
        <time>2021-01-05T20:26:04.097Z</time>
      </trkpt>
      <trkpt lat="49.421906" lon="9.225916">
        <ele>252.276894</ele>
        <time>2021-01-05T20:26:13.109Z</time>
      </trkpt>
      <trkpt lat="49.422128" lon="9.226226">
        <ele>252.184107</ele>
        <time>2021-01-05T20:26:19.569Z</time>
      </trkpt>
      <trkpt lat="49.422591" lon="9.227969">
        <ele>251.874588</ele>
        <time>2021-01-05T20:26:46.580Z</time>
      </trkpt>
      <trkpt lat="49.423321" lon="9.229794">
        <ele>251.834051</ele>
        <time>2021-01-05T20:27:19.724Z</time>
      </trkpt>
      <trkpt lat="49.423526" lon="9.230213">
        <ele>251.848355</ele>
        <time>2021-01-05T20:27:27.704Z</time>
      </trkpt>
      <trkpt lat="49.423665" lon="9.230626">
        <ele>251.861041</ele>
        <time>2021-01-05T20:27:34.386Z</time>
      </trkpt>
      <trkpt lat="49.423815" lon="9.231016">
        <ele>251.881447</ele>
        <time>2021-01-05T20:27:40.887Z</time>
      </trkpt>
      <trkpt lat="49.424578" lon="9.232070">
        <ele>251.966307</ele>
        <time>2021-01-05T20:28:03.767Z</time>
      </trkpt>
      <trkpt lat="49.424766" lon="9.232608">
        <ele>251.999171</ele>
        <time>2021-01-05T20:28:12.771Z</time>
      </trkpt>
      <trkpt lat="49.424844" lon="9.232977">
        <ele>252.111723</ele>
        <time>2021-01-05T20:28:18.519Z</time>
      </trkpt>
      <trkpt lat="49.424884" lon="9.232973">
        <ele>252.164705</ele>
        <time>2021-01-05T20:28:19.841Z</time>
      </trkpt>
      <trkpt lat="49.425131" lon="9.232944">
        <ele>252.492126</ele>
        <time>2021-01-05T20:28:27.429Z</time>
      </trkpt>
      <trkpt lat="49.425434" lon="9.232983">
        <ele>252.894015</ele>
        <time>2021-01-05T20:28:37.183Z</time>
      </trkpt>
      <trkpt lat="49.425408" lon="9.233288">
        <ele>253.158469</ele>
        <time>2021-01-05T20:28:42.070Z</time>
      </trkpt>
      <trkpt lat="49.425369" lon="9.233446">
        <ele>253.303756</ele>
        <time>2021-01-05T20:28:44.996Z</time>
      </trkpt>
      <trkpt lat="49.425283" lon="9.233612">
        <ele>253.486205</ele>
        <time>2021-01-05T20:28:48.168Z</time>
      </trkpt>
      <trkpt lat="49.425330" lon="9.233689">
        <ele>253.576986</ele>
        <time>2021-01-05T20:28:50.628Z</time>
      </trkpt>
      <trkpt lat="49.426065" lon="9.233845">
        <ele>254.826912</ele>
        <time>2021-01-05T20:29:15.098Z</time>
      </trkpt>
      <trkpt lat="49.426292" lon="9.233825">
        <ele>255.613661</ele>
        <time>2021-01-05T20:29:23.338Z</time>
      </trkpt>
      <trkpt lat="49.426443" lon="9.233626">
        <ele>256.301829</ele>
        <time>2021-01-05T20:29:30.727Z</time>
      </trkpt>
      <trkpt lat="49.426545" lon="9.233344">
        <ele>257.028026</ele>
        <time>2021-01-05T20:29:38.234Z</time>
      </trkpt>
      <trkpt lat="49.426650" lon="9.233271">
        <ele>257.426764</ele>
        <time>2021-01-05T20:29:43.119Z</time>
      </trkpt>
      <trkpt lat="49.426811" lon="9.233158">
        <ele>258.039156</ele>
        <time>2021-01-05T20:29:49.992Z</time>
      </trkpt>
      <trkpt lat="49.427069" lon="9.232979">
        <ele>259.018567</ele>
        <time>2021-01-05T20:30:00.814Z</time>
      </trkpt>
      <trkpt lat="49.427200" lon="9.232962">
        <ele>259.473461</ele>
        <time>2021-01-05T20:30:05.821Z</time>
      </trkpt>
      <trkpt lat="49.427444" lon="9.232930">
        <ele>260.320810</ele>
        <time>2021-01-05T20:30:15.388Z</time>
      </trkpt>
      <trkpt lat="49.427881" lon="9.232667">
        <ele>261.630729</ele>
        <time>2021-01-05T20:30:33.253Z</time>
      </trkpt>
      <trkpt lat="49.428570" lon="9.231957">
        <ele>263.823241</ele>
        <time>2021-01-05T20:31:02.397Z</time>
      </trkpt>
      <trkpt lat="49.429438" lon="9.231275">
        <ele>266.396314</ele>
        <time>2021-01-05T20:31:30.096Z</time>
      </trkpt>
      <trkpt lat="49.429791" lon="9.230884">
        <ele>267.542316</ele>
        <time>2021-01-05T20:31:43.435Z</time>
      </trkpt>
      <trkpt lat="49.429918" lon="9.230724">
        <ele>267.974807</ele>
        <time>2021-01-05T20:31:47.824Z</time>
      </trkpt>
      <trkpt lat="49.430041" lon="9.230569">
        <ele>268.393718</ele>
        <time>2021-01-05T20:31:53.649Z</time>
      </trkpt>
      <trkpt lat="49.430430" lon="9.230009">
        <ele>269.797411</ele>
        <time>2021-01-05T20:32:13.432Z</time>
      </trkpt>
      <trkpt lat="49.430763" lon="9.229516">
        <ele>271.872237</ele>
        <time>2021-01-05T20:32:32.212Z</time>
      </trkpt>
      <trkpt lat="49.430774" lon="9.229500">
        <ele>271.949781</ele>
        <time>2021-01-05T20:32:33.971Z</time>
      </trkpt>
      <trkpt lat="49.431134" lon="9.229101">
        <ele>274.222412</ele>
        <time>2021-01-05T20:32:54.128Z</time>
      </trkpt>
      <trkpt lat="49.431355" lon="9.228883">
        <ele>275.567055</ele>
        <time>2021-01-05T20:33:04.300Z</time>
      </trkpt>
      <trkpt lat="49.431398" lon="9.228855">
        <ele>275.806195</ele>
        <time>2021-01-05T20:33:08.525Z</time>
      </trkpt>
      <trkpt lat="49.432376" lon="9.227957">
        <ele>280.841262</ele>
        <time>2021-01-05T20:33:58.802Z</time>
      </trkpt>
      <trkpt lat="49.434135" lon="9.226959">
        <ele>286.000245</ele>
        <time>2021-01-05T20:35:02.040Z</time>
      </trkpt>
      <trkpt lat="49.434467" lon="9.226855">
        <ele>286.409034</ele>
        <time>2021-01-05T20:35:11.452Z</time>
      </trkpt>
      <trkpt lat="49.436337" lon="9.225927">
        <ele>288.101116</ele>
        <time>2021-01-05T20:35:59.732Z</time>
      </trkpt>
      <trkpt lat="49.437237" lon="9.225732">
        <ele>288.755688</ele>
        <time>2021-01-05T20:36:23.045Z</time>
      </trkpt>
      <trkpt lat="49.437561" lon="9.225511">
        <ele>289.327697</ele>
        <time>2021-01-05T20:36:32.894Z</time>
      </trkpt>
      <trkpt lat="49.437686" lon="9.225426">
        <ele>289.548268</ele>
        <time>2021-01-05T20:36:37.182Z</time>
      </trkpt>
      <trkpt lat="49.438738" lon="9.224915">
        <ele>291.328695</ele>
        <time>2021-01-05T20:37:11.470Z</time>
      </trkpt>
      <trkpt lat="49.439634" lon="9.224572">
        <ele>292.512826</ele>
        <time>2021-01-05T20:37:39.986Z</time>
      </trkpt>
      <trkpt lat="49.439781" lon="9.224503">
        <ele>292.706433</ele>
        <time>2021-01-05T20:37:44.359Z</time>
      </trkpt>
      <trkpt lat="49.440058" lon="9.224325">
        <ele>293.084601</ele>
        <time>2021-01-05T20:37:52.390Z</time>
      </trkpt>
      <trkpt lat="49.440471" lon="9.224059">
        <ele>293.648631</ele>
        <time>2021-01-05T20:38:03.846Z</time>
      </trkpt>
      <trkpt lat="49.440565" lon="9.223999">
        <ele>293.688974</ele>
        <time>2021-01-05T20:38:06.450Z</time>
      </trkpt>
      <trkpt lat="49.440728" lon="9.223861">
        <ele>293.685749</ele>
        <time>2021-01-05T20:38:13.145Z</time>
      </trkpt>
      <trkpt lat="49.441266" lon="9.223405">
        <ele>293.675102</ele>
        <time>2021-01-05T20:38:35.197Z</time>
      </trkpt>
      <trkpt lat="49.442644" lon="9.223249">
        <ele>294.445830</ele>
        <time>2021-01-05T20:39:25.909Z</time>
      </trkpt>
      <trkpt lat="49.442778" lon="9.223302">
        <ele>294.686553</ele>
        <time>2021-01-05T20:39:31.995Z</time>
      </trkpt>
      <trkpt lat="49.442849" lon="9.223436">
        <ele>294.882099</ele>
        <time>2021-01-05T20:39:36.272Z</time>
      </trkpt>
      <trkpt lat="49.443004" lon="9.223806">
        <ele>295.380012</ele>
        <time>2021-01-05T20:39:49.332Z</time>
      </trkpt>
      <trkpt lat="49.443539" lon="9.224639">
        <ele>296.704540</ele>
        <time>2021-01-05T20:40:26.319Z</time>
      </trkpt>
      <trkpt lat="49.443965" lon="9.225433">
        <ele>298.647986</ele>
        <time>2021-01-05T20:40:59.498Z</time>
      </trkpt>
      <trkpt lat="49.444092" lon="9.225892">
        <ele>299.618989</ele>
        <time>2021-01-05T20:41:14.829Z</time>
      </trkpt>
      <trkpt lat="49.444325" lon="9.226741">
        <ele>301.412794</ele>
        <time>2021-01-05T20:41:44.369Z</time>
      </trkpt>
      <trkpt lat="49.444615" lon="9.227435">
        <ele>303.251438</ele>
        <time>2021-01-05T20:42:11.403Z</time>
      </trkpt>
      <trkpt lat="49.444999" lon="9.227650">
        <ele>304.811748</ele>
        <time>2021-01-05T20:42:31.844Z</time>
      </trkpt>
      <trkpt lat="49.445259" lon="9.227712">
        <ele>305.816336</ele>
        <time>2021-01-05T20:42:45.062Z</time>
      </trkpt>
      <trkpt lat="49.445836" lon="9.227676">
        <ele>308.021239</ele>
        <time>2021-01-05T20:43:16.292Z</time>
      </trkpt>
      <trkpt lat="49.446680" lon="9.227286">
        <ele>311.154613</ele>
        <time>2021-01-05T20:44:06.327Z</time>
      </trkpt>
      <trkpt lat="49.447266" lon="9.227056">
        <ele>313.235880</ele>
        <time>2021-01-05T20:44:37.991Z</time>
      </trkpt>
      <trkpt lat="49.448094" lon="9.226731">
        <ele>315.081267</ele>
        <time>2021-01-05T20:45:16.825Z</time>
      </trkpt>
      <trkpt lat="49.448834" lon="9.226348">
        <ele>314.657502</ele>
        <time>2021-01-05T20:45:45.311Z</time>
      </trkpt>
      <trkpt lat="49.449281" lon="9.226108">
        <ele>314.400537</ele>
        <time>2021-01-05T20:46:00.292Z</time>
      </trkpt>
      <trkpt lat="49.449844" lon="9.225427">
        <ele>313.436404</ele>
        <time>2021-01-05T20:46:21.939Z</time>
      </trkpt>
      <trkpt lat="49.450413" lon="9.225124">
        <ele>312.334049</ele>
        <time>2021-01-05T20:46:40.396Z</time>
      </trkpt>
      <trkpt lat="49.450841" lon="9.224933">
        <ele>311.518178</ele>
        <time>2021-01-05T20:46:54.764Z</time>
      </trkpt>
      <trkpt lat="49.451233" lon="9.224775">
        <ele>311.052883</ele>
        <time>2021-01-05T20:47:08.891Z</time>
      </trkpt>
      <trkpt lat="49.451833" lon="9.224559">
        <ele>311.610406</ele>
        <time>2021-01-05T20:47:32.494Z</time>
      </trkpt>
      <trkpt lat="49.452585" lon="9.224471">
        <ele>312.292749</ele>
        <time>2021-01-05T20:48:04.820Z</time>
      </trkpt>
      <trkpt lat="49.453036" lon="9.224180">
        <ele>312.835187</ele>
        <time>2021-01-05T20:48:27.340Z</time>
      </trkpt>
      <trkpt lat="49.454640" lon="9.222771">
        <ele>315.657324</ele>
        <time>2021-01-05T20:49:46.641Z</time>
      </trkpt>
      <trkpt lat="49.455058" lon="9.222638">
        <ele>316.328882</ele>
        <time>2021-01-05T20:50:04.067Z</time>
      </trkpt>
      <trkpt lat="49.455513" lon="9.222632">
        <ele>317.044758</ele>
        <time>2021-01-05T20:50:22.805Z</time>
      </trkpt>
      <trkpt lat="49.455918" lon="9.223063">
        <ele>317.819546</ele>
        <time>2021-01-05T20:50:43.405Z</time>
      </trkpt>
      <trkpt lat="49.456398" lon="9.223850">
        <ele>321.411477</ele>
        <time>2021-01-05T20:51:17.302Z</time>
      </trkpt>
      <trkpt lat="49.456895" lon="9.224950">
        <ele>327.225586</ele>
        <time>2021-01-05T20:52:12.463Z</time>
      </trkpt>
      <trkpt lat="49.457145" lon="9.225133">
        <ele>329.074117</ele>
        <time>2021-01-05T20:52:30.605Z</time>
      </trkpt>
      <trkpt lat="49.457435" lon="9.225122">
        <ele>331.881177</ele>
        <time>2021-01-05T20:52:49.905Z</time>
      </trkpt>
      <trkpt lat="49.457730" lon="9.224968">
        <ele>336.101651</ele>
        <time>2021-01-05T20:53:11.548Z</time>
      </trkpt>
      <trkpt lat="49.457934" lon="9.224731">
        <ele>339.564949</ele>
        <time>2021-01-05T20:53:34.226Z</time>
      </trkpt>
      <trkpt lat="49.458153" lon="9.224287">
        <ele>344.473204</ele>
        <time>2021-01-05T20:54:05.150Z</time>
      </trkpt>
      <trkpt lat="49.458258" lon="9.224024">
        <ele>347.191221</ele>
        <time>2021-01-05T20:54:21.181Z</time>
      </trkpt>
      <trkpt lat="49.458462" lon="9.223036">
        <ele>355.937177</ele>
        <time>2021-01-05T20:55:14.261Z</time>
      </trkpt>
      <trkpt lat="49.458553" lon="9.222725">
        <ele>358.296858</ele>
        <time>2021-01-05T20:55:34.024Z</time>
      </trkpt>
      <trkpt lat="49.458675" lon="9.222474">
        <ele>360.465284</ele>
        <time>2021-01-05T20:55:48.072Z</time>
      </trkpt>
      <trkpt lat="49.459201" lon="9.221543">
        <ele>368.999719</ele>
        <time>2021-01-05T20:56:38.832Z</time>
      </trkpt>
      <trkpt lat="49.459306" lon="9.221255">
        <ele>371.284315</ele>
        <time>2021-01-05T20:56:50.613Z</time>
      </trkpt>
      <trkpt lat="49.459450" lon="9.220705">
        <ele>374.705163</ele>
        <time>2021-01-05T20:57:13.302Z</time>
      </trkpt>
      <trkpt lat="49.459627" lon="9.220249">
        <ele>376.913832</ele>
        <time>2021-01-05T20:57:29.727Z</time>
      </trkpt>
      <trkpt lat="49.459859" lon="9.219445">
        <ele>380.571914</ele>
        <time>2021-01-05T20:57:57.938Z</time>
      </trkpt>
      <trkpt lat="49.459902" lon="9.219079">
        <ele>382.118576</ele>
        <time>2021-01-05T20:58:09.277Z</time>
      </trkpt>
      <trkpt lat="49.459904" lon="9.218924">
        <ele>382.763265</ele>
        <time>2021-01-05T20:58:14.352Z</time>
      </trkpt>
      <trkpt lat="49.459888" lon="9.218749">
        <ele>383.498160</ele>
        <time>2021-01-05T20:58:19.098Z</time>
      </trkpt>
      <trkpt lat="49.459847" lon="9.218561">
        <ele>384.322785</ele>
        <time>2021-01-05T20:58:24.979Z</time>
      </trkpt>
      <trkpt lat="49.459702" lon="9.218006">
        <ele>386.054251</ele>
        <time>2021-01-05T20:58:41.020Z</time>
      </trkpt>
      <trkpt lat="49.459672" lon="9.217878">
        <ele>386.356756</ele>
        <time>2021-01-05T20:58:44.914Z</time>
      </trkpt>
      <trkpt lat="49.459643" lon="9.217785">
        <ele>386.586077</ele>
        <time>2021-01-05T20:58:47.231Z</time>
      </trkpt>
      <trkpt lat="49.459488" lon="9.217096">
        <ele>388.207020</ele>
        <time>2021-01-05T20:59:05.750Z</time>
      </trkpt>
      <trkpt lat="49.459398" lon="9.216628">
        <ele>389.292069</ele>
        <time>2021-01-05T20:59:17.704Z</time>
      </trkpt>
      <trkpt lat="49.459402" lon="9.216246">
        <ele>390.141448</ele>
        <time>2021-01-05T20:59:25.822Z</time>
      </trkpt>
      <trkpt lat="49.459433" lon="9.215925">
        <ele>390.862934</ele>
        <time>2021-01-05T20:59:31.762Z</time>
      </trkpt>
      <trkpt lat="49.459735" lon="9.215505">
        <ele>391.417658</ele>
        <time>2021-01-05T20:59:42.584Z</time>
      </trkpt>
      <trkpt lat="49.460086" lon="9.215120">
        <ele>391.545809</ele>
        <time>2021-01-05T20:59:52.781Z</time>
      </trkpt>
      <trkpt lat="49.460228" lon="9.214946">
        <ele>391.599776</ele>
        <time>2021-01-05T20:59:57.331Z</time>
      </trkpt>
      <trkpt lat="49.459996" lon="9.214528">
        <ele>391.705986</ele>
        <time>2021-01-05T21:00:05.548Z</time>
      </trkpt>
      <trkpt lat="49.459479" lon="9.213608">
        <ele>391.514238</ele>
        <time>2021-01-05T21:00:22.249Z</time>
      </trkpt>
      <trkpt lat="49.458777" lon="9.212360">
        <ele>389.842278</ele>
        <time>2021-01-05T21:00:41.680Z</time>
      </trkpt>
      <trkpt lat="49.458671" lon="9.212109">
        <ele>389.539047</ele>
        <time>2021-01-05T21:00:45.080Z</time>
      </trkpt>
      <trkpt lat="49.458614" lon="9.211974">
        <ele>389.375964</ele>
        <time>2021-01-05T21:00:46.881Z</time>
      </trkpt>
      <trkpt lat="49.458529" lon="9.211816">
        <ele>389.168190</ele>
        <time>2021-01-05T21:00:49.216Z</time>
      </trkpt>
      <trkpt lat="49.457685" lon="9.210284">
        <ele>386.516272</ele>
        <time>2021-01-05T21:01:11.686Z</time>
      </trkpt>
      <trkpt lat="49.457196" lon="9.210186">
        <ele>385.502534</ele>
        <time>2021-01-05T21:01:20.505Z</time>
      </trkpt>
      <trkpt lat="49.457151" lon="9.209958">
        <ele>385.327283</ele>
        <time>2021-01-05T21:01:23.260Z</time>
      </trkpt>
      <trkpt lat="49.457148" lon="9.209452">
        <ele>385.166724</ele>
        <time>2021-01-05T21:01:29.578Z</time>
      </trkpt>
      <trkpt lat="49.457153" lon="9.209374">
        <ele>385.141855</ele>
        <time>2021-01-05T21:01:30.463Z</time>
      </trkpt>
      <trkpt lat="49.457049" lon="9.209145">
        <ele>385.053217</ele>
        <time>2021-01-05T21:01:34.415Z</time>
      </trkpt>
      <trkpt lat="49.456292" lon="9.207789">
        <ele>384.496373</ele>
        <time>2021-01-05T21:02:00.909Z</time>
      </trkpt>
      <trkpt lat="49.455652" lon="9.206857">
        <ele>384.633720</ele>
        <time>2021-01-05T21:02:22.627Z</time>
      </trkpt>
      <trkpt lat="49.455538" lon="9.206574">
        <ele>384.667449</ele>
        <time>2021-01-05T21:02:27.835Z</time>
      </trkpt>
      <trkpt lat="49.455391" lon="9.205916">
        <ele>384.737938</ele>
        <time>2021-01-05T21:02:38.305Z</time>
      </trkpt>
      <trkpt lat="49.455369" lon="9.205565">
        <ele>384.773662</ele>
        <time>2021-01-05T21:02:43.824Z</time>
      </trkpt>
      <trkpt lat="49.455430" lon="9.204948">
        <ele>384.965459</ele>
        <time>2021-01-05T21:02:53.465Z</time>
      </trkpt>
      <trkpt lat="49.455574" lon="9.204441">
        <ele>385.136469</ele>
        <time>2021-01-05T21:03:02.068Z</time>
      </trkpt>
      <trkpt lat="49.455629" lon="9.204390">
        <ele>385.167003</ele>
        <time>2021-01-05T21:03:03.459Z</time>
      </trkpt>
      <trkpt lat="49.455715" lon="9.204202">
        <ele>385.238057</ele>
        <time>2021-01-05T21:03:07.146Z</time>
      </trkpt>
      <trkpt lat="49.456360" lon="9.202456">
        <ele>386.298826</ele>
        <time>2021-01-05T21:03:41.532Z</time>
      </trkpt>
      <trkpt lat="49.456673" lon="9.201372">
        <ele>387.368867</ele>
        <time>2021-01-05T21:04:04.581Z</time>
      </trkpt>
      <trkpt lat="49.456752" lon="9.200831">
        <ele>387.869078</ele>
        <time>2021-01-05T21:04:15.265Z</time>
      </trkpt>
      <trkpt lat="49.456752" lon="9.200831">
        <ele>387.869078</ele>
        <time>2021-01-05T21:04:15.327Z</time>
      </trkpt>
      <trkpt lat="49.456784" lon="9.200553">
        <ele>388.123768</ele>
        <time>2021-01-05T21:04:23.219Z</time>
      </trkpt>
      <trkpt lat="49.456813" lon="9.199930">
        <ele>388.730118</ele>
        <time>2021-01-05T21:04:35.175Z</time>
      </trkpt>
      <trkpt lat="49.456784" lon="9.199484">
        <ele>389.165353</ele>
        <time>2021-01-05T21:04:43.931Z</time>
      </trkpt>
      <trkpt lat="49.456731" lon="9.199024">
        <ele>389.618983</ele>
        <time>2021-01-05T21:04:53.059Z</time>
      </trkpt>
      <trkpt lat="49.456693" lon="9.198807">
        <ele>389.837206</ele>
        <time>2021-01-05T21:04:57.172Z</time>
      </trkpt>
      <trkpt lat="49.456677" lon="9.198747">
        <ele>389.900180</ele>
        <time>2021-01-05T21:04:58.526Z</time>
      </trkpt>
      <trkpt lat="49.456303" lon="9.197692">
        <ele>390.928420</ele>
        <time>2021-01-05T21:05:20.818Z</time>
      </trkpt>
      <trkpt lat="49.455678" lon="9.196610">
        <ele>391.568540</ele>
        <time>2021-01-05T21:05:46.559Z</time>
      </trkpt>
      <trkpt lat="49.455102" lon="9.195744">
        <ele>391.832447</ele>
        <time>2021-01-05T21:06:05.636Z</time>
      </trkpt>
      <trkpt lat="49.454795" lon="9.195280">
        <ele>391.089997</ele>
        <time>2021-01-05T21:06:14.919Z</time>
      </trkpt>
      <trkpt lat="49.454383" lon="9.194812">
        <ele>390.206481</ele>
        <time>2021-01-05T21:06:24.803Z</time>
      </trkpt>
      <trkpt lat="49.453752" lon="9.194117">
        <ele>388.810079</ele>
        <time>2021-01-05T21:06:38.326Z</time>
      </trkpt>
      <trkpt lat="49.453298" lon="9.193676">
        <ele>387.070392</ele>
        <time>2021-01-05T21:06:47.488Z</time>
      </trkpt>
      <trkpt lat="49.453285" lon="9.193605">
        <ele>386.915031</ele>
        <time>2021-01-05T21:06:48.164Z</time>
      </trkpt>
      <trkpt lat="49.453302" lon="9.193408">
        <ele>386.496462</ele>
        <time>2021-01-05T21:06:50.407Z</time>
      </trkpt>
      <trkpt lat="49.453424" lon="9.193064">
        <ele>385.671106</ele>
        <time>2021-01-05T21:06:54.551Z</time>
      </trkpt>
      <trkpt lat="49.453581" lon="9.192841">
        <ele>384.978743</ele>
        <time>2021-01-05T21:06:58.265Z</time>
      </trkpt>
      <trkpt lat="49.453836" lon="9.192665">
        <ele>384.073188</ele>
        <time>2021-01-05T21:07:02.976Z</time>
      </trkpt>
      <trkpt lat="49.453847" lon="9.192507">
        <ele>383.738503</ele>
        <time>2021-01-05T21:07:04.957Z</time>
      </trkpt>
      <trkpt lat="49.453391" lon="9.191049">
        <ele>382.348745</ele>
        <time>2021-01-05T21:07:24.318Z</time>
      </trkpt>
      <trkpt lat="49.453365" lon="9.190962">
        <ele>382.293736</ele>
        <time>2021-01-05T21:07:26.043Z</time>
      </trkpt>
      <trkpt lat="49.453381" lon="9.190854">
        <ele>382.230100</ele>
        <time>2021-01-05T21:07:27.467Z</time>
      </trkpt>
      <trkpt lat="49.453867" lon="9.190149">
        <ele>381.639758</ele>
        <time>2021-01-05T21:07:42.355Z</time>
      </trkpt>
      <trkpt lat="49.454048" lon="9.189808">
        <ele>381.566867</ele>
        <time>2021-01-05T21:07:49.123Z</time>
      </trkpt>
      <trkpt lat="49.453836" lon="9.189300">
        <ele>381.703113</ele>
        <time>2021-01-05T21:07:59.624Z</time>
      </trkpt>
      <trkpt lat="49.453693" lon="9.188828">
        <ele>381.820642</ele>
        <time>2021-01-05T21:08:08.601Z</time>
      </trkpt>
      <trkpt lat="49.453426" lon="9.187622">
        <ele>382.108183</ele>
        <time>2021-01-05T21:08:28.191Z</time>
      </trkpt>
      <trkpt lat="49.453316" lon="9.186879">
        <ele>381.615897</ele>
        <time>2021-01-05T21:08:38.166Z</time>
      </trkpt>
      <trkpt lat="49.453044" lon="9.185803">
        <ele>380.636647</ele>
        <time>2021-01-05T21:08:52.228Z</time>
      </trkpt>
      <trkpt lat="49.452996" lon="9.184245">
        <ele>379.003859</ele>
        <time>2021-01-05T21:09:10.136Z</time>
      </trkpt>
      <trkpt lat="49.452973" lon="9.184180">
        <ele>378.900577</ele>
        <time>2021-01-05T21:09:10.925Z</time>
      </trkpt>
      <trkpt lat="49.452887" lon="9.184350">
        <ele>378.599953</ele>
        <time>2021-01-05T21:09:13.386Z</time>
      </trkpt>
      <trkpt lat="49.452598" lon="9.185207">
        <ele>377.252577</ele>
        <time>2021-01-05T21:09:24.216Z</time>
      </trkpt>
      <trkpt lat="49.452455" lon="9.185379">
        <ele>376.862874</ele>
        <time>2021-01-05T21:09:27.494Z</time>
      </trkpt>
      <trkpt lat="49.452398" lon="9.185381">
        <ele>376.740473</ele>
        <time>2021-01-05T21:09:28.389Z</time>
      </trkpt>
      <trkpt lat="49.452335" lon="9.185352">
        <ele>376.599297</ele>
        <time>2021-01-05T21:09:29.473Z</time>
      </trkpt>
      <trkpt lat="49.452248" lon="9.185135">
        <ele>376.243486</ele>
        <time>2021-01-05T21:09:32.438Z</time>
      </trkpt>
      <trkpt lat="49.452249" lon="9.185033">
        <ele>376.101118</ele>
        <time>2021-01-05T21:09:33.659Z</time>
      </trkpt>
      <trkpt lat="49.452255" lon="9.184541">
        <ele>375.667035</ele>
        <time>2021-01-05T21:09:39.141Z</time>
      </trkpt>
      <trkpt lat="49.452239" lon="9.184048">
        <ele>375.314208</ele>
        <time>2021-01-05T21:09:44.993Z</time>
      </trkpt>
      <trkpt lat="49.452146" lon="9.184048">
        <ele>375.211952</ele>
        <time>2021-01-05T21:09:46.706Z</time>
      </trkpt>
      <trkpt lat="49.452068" lon="9.184052">
        <ele>375.126141</ele>
        <time>2021-01-05T21:09:47.987Z</time>
      </trkpt>
      <trkpt lat="49.452068" lon="9.182570">
        <ele>374.066829</ele>
        <time>2021-01-05T21:10:07.722Z</time>
      </trkpt>
      <trkpt lat="49.452071" lon="9.182469">
        <ele>373.994561</ele>
        <time>2021-01-05T21:10:09.125Z</time>
      </trkpt>
      <trkpt lat="49.452100" lon="9.181642">
        <ele>373.834896</ele>
        <time>2021-01-05T21:10:20.693Z</time>
      </trkpt>
      <trkpt lat="49.452135" lon="9.181287">
        <ele>373.779222</ele>
        <time>2021-01-05T21:10:25.996Z</time>
      </trkpt>
      <trkpt lat="49.452198" lon="9.180657">
        <ele>373.680388</ele>
        <time>2021-01-05T21:10:35.227Z</time>
      </trkpt>
      <trkpt lat="49.452307" lon="9.180162">
        <ele>373.599351</ele>
        <time>2021-01-05T21:10:42.795Z</time>
      </trkpt>
      <trkpt lat="49.452704" lon="9.178207">
        <ele>373.137578</ele>
        <time>2021-01-05T21:11:09.628Z</time>
      </trkpt>
      <trkpt lat="49.452823" lon="9.176628">
        <ele>372.821406</ele>
        <time>2021-01-05T21:11:31.766Z</time>
      </trkpt>
      <trkpt lat="49.452778" lon="9.175975">
        <ele>372.785585</ele>
        <time>2021-01-05T21:11:42.922Z</time>
      </trkpt>
      <trkpt lat="49.452721" lon="9.175567">
        <ele>372.762820</ele>
        <time>2021-01-05T21:11:50.408Z</time>
      </trkpt>
      <trkpt lat="49.452484" lon="9.174618">
        <ele>372.707362</ele>
        <time>2021-01-05T21:12:05.202Z</time>
      </trkpt>
      <trkpt lat="49.452279" lon="9.174116">
        <ele>371.978802</ele>
        <time>2021-01-05T21:12:12.265Z</time>
      </trkpt>
      <trkpt lat="49.451924" lon="9.173565">
        <ele>370.206505</ele>
        <time>2021-01-05T21:12:20.593Z</time>
      </trkpt>
      <trkpt lat="49.451683" lon="9.173270">
        <ele>369.124132</ele>
        <time>2021-01-05T21:12:25.447Z</time>
      </trkpt>
      <trkpt lat="49.451387" lon="9.173013">
        <ele>367.929636</ele>
        <time>2021-01-05T21:12:30.773Z</time>
      </trkpt>
      <trkpt lat="49.451123" lon="9.172738">
        <ele>366.809150</ele>
        <time>2021-01-05T21:12:35.661Z</time>
      </trkpt>
      <trkpt lat="49.450780" lon="9.172384">
        <ele>365.566794</ele>
        <time>2021-01-05T21:12:41.786Z</time>
      </trkpt>
      <trkpt lat="49.450546" lon="9.172161">
        <ele>364.799117</ele>
        <time>2021-01-05T21:12:45.882Z</time>
      </trkpt>
      <trkpt lat="49.450192" lon="9.171979">
        <ele>363.758189</ele>
        <time>2021-01-05T21:12:51.508Z</time>
      </trkpt>
      <trkpt lat="49.449971" lon="9.171943">
        <ele>363.138413</ele>
        <time>2021-01-05T21:12:55.023Z</time>
      </trkpt>
      <trkpt lat="49.449810" lon="9.171917">
        <ele>362.686944</ele>
        <time>2021-01-05T21:12:57.908Z</time>
      </trkpt>
      <trkpt lat="49.448568" lon="9.171862">
        <ele>364.244383</ele>
        <time>2021-01-05T21:13:33.476Z</time>
      </trkpt>
      <trkpt lat="49.448579" lon="9.171715">
        <ele>364.607771</ele>
        <time>2021-01-05T21:13:37.920Z</time>
      </trkpt>
      <trkpt lat="49.448580" lon="9.171652">
        <ele>364.762533</ele>
        <time>2021-01-05T21:13:40.174Z</time>
      </trkpt>
      <trkpt lat="49.448761" lon="9.171680">
        <ele>365.449693</ele>
        <time>2021-01-05T21:13:46.973Z</time>
      </trkpt>
      <trkpt lat="49.449326" lon="9.171683">
        <ele>367.583943</ele>
        <time>2021-01-05T21:14:12.898Z</time>
      </trkpt>
      <trkpt lat="49.449506" lon="9.171601">
        <ele>368.355371</ele>
        <time>2021-01-05T21:14:20.245Z</time>
      </trkpt>
      <trkpt lat="49.449587" lon="9.171543">
        <ele>368.839028</ele>
        <time>2021-01-05T21:14:25.028Z</time>
      </trkpt>
      <trkpt lat="49.449678" lon="9.171478">
        <ele>369.382158</ele>
        <time>2021-01-05T21:14:31.034Z</time>
      </trkpt>
      <trkpt lat="49.451412" lon="9.169729">
        <ele>379.583844</ele>
        <time>2021-01-05T21:16:01.288Z</time>
      </trkpt>
      <trkpt lat="49.452339" lon="9.169218">
        <ele>382.910397</ele>
        <time>2021-01-05T21:16:30.651Z</time>
      </trkpt>
      <trkpt lat="49.453593" lon="9.168977">
        <ele>388.200775</ele>
        <time>2021-01-05T21:17:18.022Z</time>
      </trkpt>
      <trkpt lat="49.453714" lon="9.168820">
        <ele>388.905238</ele>
        <time>2021-01-05T21:17:24.135Z</time>
      </trkpt>
      <trkpt lat="49.453735" lon="9.168689">
        <ele>389.295572</ele>
        <time>2021-01-05T21:17:27.873Z</time>
      </trkpt>
      <trkpt lat="49.453722" lon="9.168574">
        <ele>389.633259</ele>
        <time>2021-01-05T21:17:32.393Z</time>
      </trkpt>
      <trkpt lat="49.453423" lon="9.167839">
        <ele>392.158526</ele>
        <time>2021-01-05T21:17:56.045Z</time>
      </trkpt>
      <trkpt lat="49.453282" lon="9.167516">
        <ele>393.392541</ele>
        <time>2021-01-05T21:18:08.396Z</time>
      </trkpt>
      <trkpt lat="49.453205" lon="9.167242">
        <ele>394.339319</ele>
        <time>2021-01-05T21:18:16.591Z</time>
      </trkpt>
      <trkpt lat="49.453179" lon="9.167085">
        <ele>394.853183</ele>
        <time>2021-01-05T21:18:22.110Z</time>
      </trkpt>
      <trkpt lat="49.453185" lon="9.166951">
        <ele>395.279201</ele>
        <time>2021-01-05T21:18:26.246Z</time>
      </trkpt>
      <trkpt lat="49.453044" lon="9.166659">
        <ele>396.432896</ele>
        <time>2021-01-05T21:18:37.807Z</time>
      </trkpt>
      <trkpt lat="49.452779" lon="9.165766">
        <ele>399.546413</ele>
        <time>2021-01-05T21:19:03.756Z</time>
      </trkpt>
      <trkpt lat="49.452702" lon="9.165550">
        <ele>400.327758</ele>
        <time>2021-01-05T21:19:09.863Z</time>
      </trkpt>
      <trkpt lat="49.452698" lon="9.165538">
        <ele>400.370531</ele>
        <time>2021-01-05T21:19:10.371Z</time>
      </trkpt>
      <trkpt lat="49.452619" lon="9.165333">
        <ele>400.849171</ele>
        <time>2021-01-05T21:19:15.673Z</time>
      </trkpt>
      <trkpt lat="49.452247" lon="9.164470">
        <ele>401.764409</ele>
        <time>2021-01-05T21:19:33.884Z</time>
      </trkpt>
      <trkpt lat="49.452122" lon="9.164033">
        <ele>402.186402</ele>
        <time>2021-01-05T21:19:41.576Z</time>
      </trkpt>
      <trkpt lat="49.452133" lon="9.163767">
        <ele>402.421989</ele>
        <time>2021-01-05T21:19:45.982Z</time>
      </trkpt>
      <trkpt lat="49.452258" lon="9.163394">
        <ele>402.792905</ele>
        <time>2021-01-05T21:19:52.576Z</time>
      </trkpt>
      <trkpt lat="49.452404" lon="9.163127">
        <ele>403.101286</ele>
        <time>2021-01-05T21:19:58.371Z</time>
      </trkpt>
      <trkpt lat="49.452447" lon="9.163067">
        <ele>403.180220</ele>
        <time>2021-01-05T21:19:59.723Z</time>
      </trkpt>
      <trkpt lat="49.452621" lon="9.162948">
        <ele>403.491556</ele>
        <time>2021-01-05T21:20:04.851Z</time>
      </trkpt>
      <trkpt lat="49.452776" lon="9.162943">
        <ele>403.746282</ele>
        <time>2021-01-05T21:20:08.853Z</time>
      </trkpt>
      <trkpt lat="49.452823" lon="9.162954">
        <ele>403.824394</ele>
        <time>2021-01-05T21:20:10.231Z</time>
      </trkpt>
      <trkpt lat="49.452854" lon="9.162691">
        <ele>404.109883</ele>
        <time>2021-01-05T21:20:16.303Z</time>
      </trkpt>
      <trkpt lat="49.452892" lon="9.162553">
        <ele>404.269958</ele>
        <time>2021-01-05T21:20:19.554Z</time>
      </trkpt>
      <trkpt lat="49.453120" lon="9.162168">
        <ele>404.826224</ele>
        <time>2021-01-05T21:20:31.741Z</time>
      </trkpt>
      <trkpt lat="49.453318" lon="9.161731">
        <ele>405.395165</ele>
        <time>2021-01-05T21:20:44.479Z</time>
      </trkpt>
      <trkpt lat="49.453376" lon="9.161777">
        <ele>405.502381</ele>
        <time>2021-01-05T21:20:46.824Z</time>
      </trkpt>
      <trkpt lat="49.453397" lon="9.161680">
        <ele>405.611579</ele>
        <time>2021-01-05T21:20:48.820Z</time>
      </trkpt>
      <trkpt lat="49.453376" lon="9.161392">
        <ele>405.921116</ele>
        <time>2021-01-05T21:20:54.349Z</time>
      </trkpt>
      <trkpt lat="49.453373" lon="9.161274">
        <ele>406.047246</ele>
        <time>2021-01-05T21:20:57.115Z</time>
      </trkpt>
      <trkpt lat="49.453387" lon="9.161184">
        <ele>406.146468</ele>
        <time>2021-01-05T21:20:59.241Z</time>
      </trkpt>
      <trkpt lat="49.453445" lon="9.161009">
        <ele>406.380685</ele>
        <time>2021-01-05T21:21:02.716Z</time>
      </trkpt>
      <trkpt lat="49.453479" lon="9.160931">
        <ele>406.492661</ele>
        <time>2021-01-05T21:21:04.699Z</time>
      </trkpt>
      <trkpt lat="49.453457" lon="9.160575">
        <ele>406.919052</ele>
        <time>2021-01-05T21:21:14.128Z</time>
      </trkpt>
      <trkpt lat="49.453398" lon="9.160312">
        <ele>407.250789</ele>
        <time>2021-01-05T21:21:20.646Z</time>
      </trkpt>
      <trkpt lat="49.453385" lon="9.160261">
        <ele>407.316107</ele>
        <time>2021-01-05T21:21:22.289Z</time>
      </trkpt>
      <trkpt lat="49.453383" lon="9.160205">
        <ele>407.382979</ele>
        <time>2021-01-05T21:21:23.981Z</time>
      </trkpt>
      <trkpt lat="49.453397" lon="9.160121">
        <ele>407.486377</ele>
        <time>2021-01-05T21:21:26.283Z</time>
      </trkpt>
      <trkpt lat="49.453538" lon="9.159852">
        <ele>407.898398</ele>
        <time>2021-01-05T21:21:34.371Z</time>
      </trkpt>
      <trkpt lat="49.453510" lon="9.159803">
        <ele>407.976187</ele>
        <time>2021-01-05T21:21:35.925Z</time>
      </trkpt>
      <trkpt lat="49.453271" lon="9.159496">
        <ele>408.547297</ele>
        <time>2021-01-05T21:21:45.014Z</time>
      </trkpt>
      <trkpt lat="49.453147" lon="9.159398">
        <ele>408.803000</ele>
        <time>2021-01-05T21:21:49.590Z</time>
      </trkpt>
      <trkpt lat="49.452998" lon="9.159340">
        <ele>409.084910</ele>
        <time>2021-01-05T21:21:53.482Z</time>
      </trkpt>
      <trkpt lat="49.452775" lon="9.159095">
        <ele>409.428718</ele>
        <time>2021-01-05T21:22:00.799Z</time>
      </trkpt>
      <trkpt lat="49.452586" lon="9.158614">
        <ele>409.368085</ele>
        <time>2021-01-05T21:22:09.488Z</time>
      </trkpt>
      <trkpt lat="49.452419" lon="9.158188">
        <ele>409.314418</ele>
        <time>2021-01-05T21:22:16.192Z</time>
      </trkpt>
      <trkpt lat="49.452175" lon="9.157999">
        <ele>409.269082</ele>
        <time>2021-01-05T21:22:21.667Z</time>
      </trkpt>
      <trkpt lat="49.452105" lon="9.157938">
        <ele>409.255731</ele>
        <time>2021-01-05T21:22:23.240Z</time>
      </trkpt>
      <trkpt lat="49.451707" lon="9.157854">
        <ele>409.189064</ele>
        <time>2021-01-05T21:22:31.266Z</time>
      </trkpt>
      <trkpt lat="49.451414" lon="9.157733">
        <ele>409.133930</ele>
        <time>2021-01-05T21:22:37.471Z</time>
      </trkpt>
      <trkpt lat="49.451212" lon="9.157757">
        <ele>409.065978</ele>
        <time>2021-01-05T21:22:41.716Z</time>
      </trkpt>
      <trkpt lat="49.451068" lon="9.157839">
        <ele>409.014478</ele>
        <time>2021-01-05T21:22:44.959Z</time>
      </trkpt>
      <trkpt lat="49.450919" lon="9.157984">
        <ele>408.955343</ele>
        <time>2021-01-05T21:22:48.718Z</time>
      </trkpt>
      <trkpt lat="49.450341" lon="9.158638">
        <ele>408.714688</ele>
        <time>2021-01-05T21:23:04.115Z</time>
      </trkpt>
      <trkpt lat="49.449651" lon="9.159318">
        <ele>408.284336</ele>
        <time>2021-01-05T21:23:21.386Z</time>
      </trkpt>
      <trkpt lat="49.449528" lon="9.159440">
        <ele>408.159155</ele>
        <time>2021-01-05T21:23:24.595Z</time>
      </trkpt>
      <trkpt lat="49.449268" lon="9.158981">
        <ele>407.820631</ele>
        <time>2021-01-05T21:23:32.647Z</time>
      </trkpt>
      <trkpt lat="49.448935" lon="9.158164">
        <ele>407.284424</ele>
        <time>2021-01-05T21:23:44.896Z</time>
      </trkpt>
      <trkpt lat="49.448633" lon="9.157681">
        <ele>406.777089</ele>
        <time>2021-01-05T21:23:52.909Z</time>
      </trkpt>
      <trkpt lat="49.448069" lon="9.157020">
        <ele>405.262403</ele>
        <time>2021-01-05T21:24:05.379Z</time>
      </trkpt>
      <trkpt lat="49.447705" lon="9.156528">
        <ele>404.227267</ele>
        <time>2021-01-05T21:24:13.794Z</time>
      </trkpt>
      <trkpt lat="49.447335" lon="9.155895">
        <ele>403.017256</ele>
        <time>2021-01-05T21:24:23.204Z</time>
      </trkpt>
      <trkpt lat="49.446544" lon="9.154914">
        <ele>400.318960</ele>
        <time>2021-01-05T21:24:40.119Z</time>
      </trkpt>
      <trkpt lat="49.445872" lon="9.153703">
        <ele>397.989586</ele>
        <time>2021-01-05T21:25:11.710Z</time>
      </trkpt>
      <trkpt lat="49.445628" lon="9.153309">
        <ele>397.534803</ele>
        <time>2021-01-05T21:25:22.735Z</time>
      </trkpt>
      <trkpt lat="49.443851" lon="9.152713">
        <ele>396.083335</ele>
        <time>2021-01-05T21:26:26.106Z</time>
      </trkpt>
      <trkpt lat="49.443313" lon="9.151816">
        <ele>396.097745</ele>
        <time>2021-01-05T21:26:58.637Z</time>
      </trkpt>
      <trkpt lat="49.442605" lon="9.150634">
        <ele>394.974897</ele>
        <time>2021-01-05T21:27:35.833Z</time>
      </trkpt>
      <trkpt lat="49.442509" lon="9.150358">
        <ele>394.655760</ele>
        <time>2021-01-05T21:27:42.586Z</time>
      </trkpt>
      <trkpt lat="49.442525" lon="9.150221">
        <ele>394.513843</ele>
        <time>2021-01-05T21:27:45.353Z</time>
      </trkpt>
      <trkpt lat="49.443558" lon="9.149023">
        <ele>391.917791</ele>
        <time>2021-01-05T21:28:24.368Z</time>
      </trkpt>
      <trkpt lat="49.442966" lon="9.148200">
        <ele>389.776994</ele>
        <time>2021-01-05T21:28:47.732Z</time>
      </trkpt>
      <trkpt lat="49.442743" lon="9.147792">
        <ele>388.847279</ele>
        <time>2021-01-05T21:28:58.418Z</time>
      </trkpt>
      <trkpt lat="49.442231" lon="9.146003">
        <ele>387.964214</ele>
        <time>2021-01-05T21:29:42.008Z</time>
      </trkpt>
      <trkpt lat="49.441520" lon="9.144386">
        <ele>388.443002</ele>
        <time>2021-01-05T21:30:32.255Z</time>
      </trkpt>
      <trkpt lat="49.440897" lon="9.143691">
        <ele>389.441668</ele>
        <time>2021-01-05T21:31:05.579Z</time>
      </trkpt>
      <trkpt lat="49.440596" lon="9.143467">
        <ele>389.875561</ele>
        <time>2021-01-05T21:31:20.521Z</time>
      </trkpt>
      <trkpt lat="49.439584" lon="9.143150">
        <ele>390.745705</ele>
        <time>2021-01-05T21:32:06.411Z</time>
      </trkpt>
      <trkpt lat="49.439534" lon="9.143119">
        <ele>390.788549</ele>
        <time>2021-01-05T21:32:08.988Z</time>
      </trkpt>
      <trkpt lat="49.439332" lon="9.142993">
        <ele>390.961786</ele>
        <time>2021-01-05T21:32:18.117Z</time>
      </trkpt>
      <trkpt lat="49.438274" lon="9.142260">
        <ele>389.662307</ele>
        <time>2021-01-05T21:32:57.408Z</time>
      </trkpt>
      <trkpt lat="49.438218" lon="9.142253">
        <ele>389.487296</ele>
        <time>2021-01-05T21:32:59.169Z</time>
      </trkpt>
      <trkpt lat="49.438126" lon="9.142378">
        <ele>389.104896</ele>
        <time>2021-01-05T21:33:03.024Z</time>
      </trkpt>
      <trkpt lat="49.438117" lon="9.142238">
        <ele>388.819939</ele>
        <time>2021-01-05T21:33:05.587Z</time>
      </trkpt>
      <trkpt lat="49.437383" lon="9.140529">
        <ele>384.334750</ele>
        <time>2021-01-05T21:33:42.928Z</time>
      </trkpt>
      <trkpt lat="49.436852" lon="9.140013">
        <ele>381.809565</ele>
        <time>2021-01-05T21:34:00.158Z</time>
      </trkpt>
      <trkpt lat="49.436285" lon="9.139684">
        <ele>379.373275</ele>
        <time>2021-01-05T21:34:17.693Z</time>
      </trkpt>
      <trkpt lat="49.434791" lon="9.137015">
        <ele>373.466215</ele>
        <time>2021-01-05T21:35:29.393Z</time>
      </trkpt>
      <trkpt lat="49.435164" lon="9.134954">
        <ele>369.014542</ele>
        <time>2021-01-05T21:36:10.349Z</time>
      </trkpt>
      <trkpt lat="49.435054" lon="9.133164">
        <ele>364.080200</ele>
        <time>2021-01-05T21:36:43.414Z</time>
      </trkpt>
      <trkpt lat="49.434066" lon="9.130090">
        <ele>353.591547</ele>
        <time>2021-01-05T21:37:45.717Z</time>
      </trkpt>
      <trkpt lat="49.434020" lon="9.128115">
        <ele>346.690882</ele>
        <time>2021-01-05T21:38:20.223Z</time>
      </trkpt>
      <trkpt lat="49.434166" lon="9.126773">
        <ele>341.900510</ele>
        <time>2021-01-05T21:38:44.321Z</time>
      </trkpt>
      <trkpt lat="49.434202" lon="9.126661">
        <ele>341.569268</ele>
        <time>2021-01-05T21:38:46.458Z</time>
      </trkpt>
      <trkpt lat="49.434143" lon="9.126374">
        <ele>340.771221</ele>
        <time>2021-01-05T21:38:51.976Z</time>
      </trkpt>
      <trkpt lat="49.433628" lon="9.125671">
        <ele>337.963624</ele>
        <time>2021-01-05T21:39:11.219Z</time>
      </trkpt>
      <trkpt lat="49.433296" lon="9.124826">
        <ele>335.346077</ele>
        <time>2021-01-05T21:39:29.958Z</time>
      </trkpt>
      <trkpt lat="49.432765" lon="9.124003">
        <ele>333.068544</ele>
        <time>2021-01-05T21:39:53.139Z</time>
      </trkpt>
      <trkpt lat="49.431921" lon="9.121989">
        <ele>328.499752</ele>
        <time>2021-01-05T21:40:40.091Z</time>
      </trkpt>
      <trkpt lat="49.431578" lon="9.121432">
        <ele>326.850265</ele>
        <time>2021-01-05T21:40:54.936Z</time>
      </trkpt>
      <trkpt lat="49.430440" lon="9.120495">
        <ele>322.358308</ele>
        <time>2021-01-05T21:41:32.273Z</time>
      </trkpt>
      <trkpt lat="49.429434" lon="9.119861">
        <ele>318.120600</ele>
        <time>2021-01-05T21:42:03.100Z</time>
      </trkpt>
      <trkpt lat="49.429100" lon="9.119651">
        <ele>316.739215</ele>
        <time>2021-01-05T21:42:13.486Z</time>
      </trkpt>
      <trkpt lat="49.427737" lon="9.119465">
        <ele>312.643078</ele>
        <time>2021-01-05T21:42:53.777Z</time>
      </trkpt>
      <trkpt lat="49.427582" lon="9.119060">
        <ele>311.728171</ele>
        <time>2021-01-05T21:43:03.481Z</time>
      </trkpt>
      <trkpt lat="49.427846" lon="9.118531">
        <ele>310.532936</ele>
        <time>2021-01-05T21:43:17.370Z</time>
      </trkpt>
      <trkpt lat="49.427856" lon="9.118373">
        <ele>310.255429</ele>
        <time>2021-01-05T21:43:20.625Z</time>
      </trkpt>
      <trkpt lat="49.427809" lon="9.118144">
        <ele>309.835653</ele>
        <time>2021-01-05T21:43:25.486Z</time>
      </trkpt>
      <trkpt lat="49.427606" lon="9.117894">
        <ele>309.136594</ele>
        <time>2021-01-05T21:43:33.487Z</time>
      </trkpt>
      <trkpt lat="49.426749" lon="9.118400">
        <ele>306.669203</ele>
        <time>2021-01-05T21:44:00.793Z</time>
      </trkpt>
      <trkpt lat="49.426065" lon="9.117891">
        <ele>303.851368</ele>
        <time>2021-01-05T21:44:22.863Z</time>
      </trkpt>
      <trkpt lat="49.425343" lon="9.117015">
        <ele>300.409810</ele>
        <time>2021-01-05T21:44:49.256Z</time>
      </trkpt>
      <trkpt lat="49.424091" lon="9.116437">
        <ele>294.895291</ele>
        <time>2021-01-05T21:45:26.304Z</time>
      </trkpt>
      <trkpt lat="49.423797" lon="9.116080">
        <ele>293.292873</ele>
        <time>2021-01-05T21:45:36.728Z</time>
      </trkpt>
      <trkpt lat="49.423667" lon="9.115795">
        <ele>292.324437</ele>
        <time>2021-01-05T21:45:43.045Z</time>
      </trkpt>
      <trkpt lat="49.423618" lon="9.115491">
        <ele>291.414994</ele>
        <time>2021-01-05T21:45:48.836Z</time>
      </trkpt>
      <trkpt lat="49.423532" lon="9.115216">
        <ele>290.521616</ele>
        <time>2021-01-05T21:45:54.458Z</time>
      </trkpt>
      <trkpt lat="49.423696" lon="9.114912">
        <ele>289.365269</ele>
        <time>2021-01-05T21:45:58.312Z</time>
      </trkpt>
      <trkpt lat="49.423385" lon="9.114483">
        <ele>287.484506</ele>
        <time>2021-01-05T21:46:10.096Z</time>
      </trkpt>
      <trkpt lat="49.422989" lon="9.113723">
        <ele>284.633438</ele>
        <time>2021-01-05T21:46:27.646Z</time>
      </trkpt>
      <trkpt lat="49.422942" lon="9.113676">
        <ele>284.381065</ele>
        <time>2021-01-05T21:46:29.220Z</time>
      </trkpt>
      <trkpt lat="49.422907" lon="9.113595">
        <ele>284.096349</ele>
        <time>2021-01-05T21:46:31.112Z</time>
      </trkpt>
      <trkpt lat="49.422778" lon="9.113302">
        <ele>283.345558</ele>
        <time>2021-01-05T21:46:37.430Z</time>
      </trkpt>
      <trkpt lat="49.422619" lon="9.112840">
        <ele>282.241286</ele>
        <time>2021-01-05T21:46:47.699Z</time>
      </trkpt>
      <trkpt lat="49.421844" lon="9.112039">
        <ele>279.208130</ele>
        <time>2021-01-05T21:47:15.634Z</time>
      </trkpt>
      <trkpt lat="49.421111" lon="9.110422">
        <ele>275.475866</ele>
        <time>2021-01-05T21:47:54.201Z</time>
      </trkpt>
      <trkpt lat="49.421046" lon="9.110031">
        <ele>274.738325</ele>
        <time>2021-01-05T21:48:02.172Z</time>
      </trkpt>
      <trkpt lat="49.420517" lon="9.109356">
        <ele>272.861992</ele>
        <time>2021-01-05T21:48:22.960Z</time>
      </trkpt>
      <trkpt lat="49.420371" lon="9.108835">
        <ele>271.974738</ele>
        <time>2021-01-05T21:48:34.105Z</time>
      </trkpt>
      <trkpt lat="49.420086" lon="9.108257">
        <ele>270.840371</ele>
        <time>2021-01-05T21:48:48.459Z</time>
      </trkpt>
      <trkpt lat="49.419337" lon="9.107558">
        <ele>268.803850</ele>
        <time>2021-01-05T21:49:15.728Z</time>
      </trkpt>
      <trkpt lat="49.419208" lon="9.107305">
        <ele>268.570307</ele>
        <time>2021-01-05T21:49:22.378Z</time>
      </trkpt>
      <trkpt lat="49.418226" lon="9.106428">
        <ele>267.301925</ele>
        <time>2021-01-05T21:49:59.678Z</time>
      </trkpt>
      <trkpt lat="49.416331" lon="9.104736">
        <ele>266.948291</ele>
        <time>2021-01-05T21:51:22.275Z</time>
      </trkpt>
      <trkpt lat="49.416033" lon="9.104396">
        <ele>266.715707</ele>
        <time>2021-01-05T21:51:35.737Z</time>
      </trkpt>
      <trkpt lat="49.415866" lon="9.104125">
        <ele>266.560599</ele>
        <time>2021-01-05T21:51:45.535Z</time>
      </trkpt>
      <trkpt lat="49.415839" lon="9.103723">
        <ele>266.392668</ele>
        <time>2021-01-05T21:51:54.239Z</time>
      </trkpt>
      <trkpt lat="49.415873" lon="9.103364">
        <ele>266.241920</ele>
        <time>2021-01-05T21:52:02.394Z</time>
      </trkpt>
      <trkpt lat="49.415976" lon="9.103039">
        <ele>266.091700</ele>
        <time>2021-01-05T21:52:11.401Z</time>
      </trkpt>
      <trkpt lat="49.416258" lon="9.102833">
        <ele>265.892275</ele>
        <time>2021-01-05T21:52:22.062Z</time>
      </trkpt>
      <trkpt lat="49.416883" lon="9.102816">
        <ele>264.689421</ele>
        <time>2021-01-05T21:52:41.467Z</time>
      </trkpt>
      <trkpt lat="49.418364" lon="9.103287">
        <ele>261.183669</ele>
        <time>2021-01-05T21:53:27.785Z</time>
      </trkpt>
      <trkpt lat="49.418757" lon="9.103175">
        <ele>260.240241</ele>
        <time>2021-01-05T21:53:39.660Z</time>
      </trkpt>
      <trkpt lat="49.420226" lon="9.100427">
        <ele>256.489092</ele>
        <time>2021-01-05T21:54:51.998Z</time>
      </trkpt>
      <trkpt lat="49.420310" lon="9.100274">
        <ele>256.382552</ele>
        <time>2021-01-05T21:54:56.190Z</time>
      </trkpt>
      <trkpt lat="49.420263" lon="9.099961">
        <ele>256.211612</ele>
        <time>2021-01-05T21:55:06.254Z</time>
      </trkpt>
      <trkpt lat="49.420133" lon="9.099720">
        <ele>256.045008</ele>
        <time>2021-01-05T21:55:13.943Z</time>
      </trkpt>
      <trkpt lat="49.420097" lon="9.099518">
        <ele>255.933554</ele>
        <time>2021-01-05T21:55:20.775Z</time>
      </trkpt>
      <trkpt lat="49.420146" lon="9.099350">
        <ele>255.996537</ele>
        <time>2021-01-05T21:55:25.331Z</time>
      </trkpt>
      <trkpt lat="49.420691" lon="9.098045">
        <ele>256.660004</ele>
        <time>2021-01-05T21:56:10.706Z</time>
      </trkpt>
      <trkpt lat="49.420681" lon="9.097672">
        <ele>256.819718</ele>
        <time>2021-01-05T21:56:20.731Z</time>
      </trkpt>
      <trkpt lat="49.420535" lon="9.097331">
        <ele>256.994370</ele>
        <time>2021-01-05T21:56:30.058Z</time>
      </trkpt>
      <trkpt lat="49.420358" lon="9.097106">
        <ele>256.906775</ele>
        <time>2021-01-05T21:56:37.401Z</time>
      </trkpt>
      <trkpt lat="49.419723" lon="9.096450">
        <ele>254.223436</ele>
        <time>2021-01-05T21:57:00.088Z</time>
      </trkpt>
      <trkpt lat="49.419413" lon="9.096212">
        <ele>253.008107</ele>
        <time>2021-01-05T21:57:09.811Z</time>
      </trkpt>
      <trkpt lat="49.417302" lon="9.096169">
        <ele>244.920300</ele>
        <time>2021-01-05T21:58:08.999Z</time>
      </trkpt>
      <trkpt lat="49.416979" lon="9.096013">
        <ele>243.619374</ele>
        <time>2021-01-05T21:58:19.018Z</time>
      </trkpt>
      <trkpt lat="49.415336" lon="9.095722">
        <ele>240.363348</ele>
        <time>2021-01-05T21:59:11.916Z</time>
      </trkpt>
      <trkpt lat="49.414661" lon="9.095415">
        <ele>238.679492</ele>
        <time>2021-01-05T21:59:34.715Z</time>
      </trkpt>
      <trkpt lat="49.414349" lon="9.095352">
        <ele>237.898424</ele>
        <time>2021-01-05T21:59:44.621Z</time>
      </trkpt>
      <trkpt lat="49.413878" lon="9.095399">
        <ele>236.726895</ele>
        <time>2021-01-05T21:59:59.184Z</time>
      </trkpt>
      <trkpt lat="49.412023" lon="9.094933">
        <ele>229.796337</ele>
        <time>2021-01-05T22:00:53.097Z</time>
      </trkpt>
      <trkpt lat="49.409779" lon="9.094690">
        <ele>219.070306</ele>
        <time>2021-01-05T22:01:55.101Z</time>
      </trkpt>
      <trkpt lat="49.409059" lon="9.094423">
        <ele>215.275441</ele>
        <time>2021-01-05T22:02:15.421Z</time>
      </trkpt>
      <trkpt lat="49.408909" lon="9.094250">
        <ele>214.314569</ele>
        <time>2021-01-05T22:02:20.597Z</time>
      </trkpt>
      <trkpt lat="49.408748" lon="9.094116">
        <ele>213.376476</ele>
        <time>2021-01-05T22:02:23.486Z</time>
      </trkpt>
      <trkpt lat="49.408430" lon="9.093715">
        <ele>211.268929</ele>
        <time>2021-01-05T22:02:30.004Z</time>
      </trkpt>
      <trkpt lat="49.407366" lon="9.092873">
        <ele>204.202353</ele>
        <time>2021-01-05T22:02:48.581Z</time>
      </trkpt>
      <trkpt lat="49.407206" lon="9.092573">
        <ele>202.678117</ele>
        <time>2021-01-05T22:02:52.363Z</time>
      </trkpt>
      <trkpt lat="49.406811" lon="9.091458">
        <ele>198.477015</ele>
        <time>2021-01-05T22:03:04.898Z</time>
      </trkpt>
      <trkpt lat="49.406631" lon="9.090956">
        <ele>197.200562</ele>
        <time>2021-01-05T22:03:10.820Z</time>
      </trkpt>
      <trkpt lat="49.406606" lon="9.090884">
        <ele>197.018817</ele>
        <time>2021-01-05T22:03:11.658Z</time>
      </trkpt>
      <trkpt lat="49.406453" lon="9.090119">
        <ele>195.236504</ele>
        <time>2021-01-05T22:03:20.598Z</time>
      </trkpt>
      <trkpt lat="49.406434" lon="9.090011">
        <ele>194.987352</ele>
        <time>2021-01-05T22:03:21.924Z</time>
      </trkpt>
      <trkpt lat="49.406410" lon="9.089915">
        <ele>194.758324</ele>
        <time>2021-01-05T22:03:23.119Z</time>
      </trkpt>
      <trkpt lat="49.406379" lon="9.089821">
        <ele>194.523634</ele>
        <time>2021-01-05T22:03:24.308Z</time>
      </trkpt>
      <trkpt lat="49.406759" lon="9.090058">
        <ele>193.528931</ele>
        <time>2021-01-05T22:03:38.155Z</time>
      </trkpt>
      <trkpt lat="49.406740" lon="9.089959">
        <ele>193.705551</ele>
        <time>2021-01-05T22:03:40.625Z</time>
      </trkpt>
      <trkpt lat="49.406609" lon="9.089716">
        <ele>194.245535</ele>
        <time>2021-01-05T22:03:48.351Z</time>
      </trkpt>
      <trkpt lat="49.406211" lon="9.088491">
        <ele>196.588502</ele>
        <time>2021-01-05T22:04:35.315Z</time>
      </trkpt>
      <trkpt lat="49.406006" lon="9.087177">
        <ele>197.947011</ele>
        <time>2021-01-05T22:05:22.264Z</time>
      </trkpt>
      <trkpt lat="49.405994" lon="9.086594">
        <ele>197.783407</ele>
        <time>2021-01-05T22:05:38.036Z</time>
      </trkpt>
      <trkpt lat="49.405951" lon="9.086197">
        <ele>197.670523</ele>
        <time>2021-01-05T22:05:48.825Z</time>
      </trkpt>
      <trkpt lat="49.405715" lon="9.085654">
        <ele>197.487371</ele>
        <time>2021-01-05T22:06:02.732Z</time>
      </trkpt>
      <trkpt lat="49.405580" lon="9.085216">
        <ele>197.351433</ele>
        <time>2021-01-05T22:06:12.021Z</time>
      </trkpt>
      <trkpt lat="49.405490" lon="9.084862">
        <ele>196.327062</ele>
        <time>2021-01-05T22:06:18.649Z</time>
      </trkpt>
      <trkpt lat="49.405490" lon="9.084862">
        <ele>196.327062</ele>
        <time>2021-01-05T22:06:18.824Z</time>
      </trkpt>
      <trkpt lat="49.405490" lon="9.084862">
        <ele>196.327062</ele>
        <time>2021-01-05T22:06:18.854Z</time>
      </trkpt>
      <trkpt lat="49.405265" lon="9.083970">
        <ele>192.033429</ele>
        <time>2021-01-05T22:06:35.131Z</time>
      </trkpt>
      <trkpt lat="49.405287" lon="9.083700">
        <ele>190.812182</ele>
        <time>2021-01-05T22:06:39.786Z</time>
      </trkpt>
      <trkpt lat="49.405335" lon="9.083526">
        <ele>189.963976</ele>
        <time>2021-01-05T22:06:42.905Z</time>
      </trkpt>
      <trkpt lat="49.405277" lon="9.083497">
        <ele>189.543293</ele>
        <time>2021-01-05T22:06:43.697Z</time>
      </trkpt>
      <trkpt lat="49.405137" lon="9.082214">
        <ele>183.744450</ele>
        <time>2021-01-05T22:06:55.719Z</time>
      </trkpt>
      <trkpt lat="49.405219" lon="9.081419">
        <ele>180.252072</ele>
        <time>2021-01-05T22:07:03.204Z</time>
      </trkpt>
      <trkpt lat="49.405232" lon="9.080210">
        <ele>175.005804</ele>
        <time>2021-01-05T22:07:14.539Z</time>
      </trkpt>
      <trkpt lat="49.405122" lon="9.078916">
        <ele>170.395249</ele>
        <time>2021-01-05T22:07:27.395Z</time>
      </trkpt>
      <trkpt lat="49.405018" lon="9.078549">
        <ele>169.170946</ele>
        <time>2021-01-05T22:07:31.431Z</time>
      </trkpt>
      <trkpt lat="49.404871" lon="9.078348">
        <ele>168.246097</ele>
        <time>2021-01-05T22:07:34.466Z</time>
      </trkpt>
      <trkpt lat="49.404757" lon="9.078287">
        <ele>167.678709</ele>
        <time>2021-01-05T22:07:36.374Z</time>
      </trkpt>
      <trkpt lat="49.404451" lon="9.078051">
        <ele>166.069448</ele>
        <time>2021-01-05T22:07:41.735Z</time>
      </trkpt>
      <trkpt lat="49.404396" lon="9.077989">
        <ele>165.748837</ele>
        <time>2021-01-05T22:07:42.743Z</time>
      </trkpt>
      <trkpt lat="49.404301" lon="9.077882">
        <ele>165.195219</ele>
        <time>2021-01-05T22:07:44.543Z</time>
      </trkpt>
      <trkpt lat="49.404272" lon="9.077848">
        <ele>165.023771</ele>
        <time>2021-01-05T22:07:45.220Z</time>
      </trkpt>
      <trkpt lat="49.404074" lon="9.077611">
        <ele>163.776915</ele>
        <time>2021-01-05T22:07:49.103Z</time>
      </trkpt>
      <trkpt lat="49.403931" lon="9.077343">
        <ele>162.599906</ele>
        <time>2021-01-05T22:07:52.574Z</time>
      </trkpt>
      <trkpt lat="49.403848" lon="9.077185">
        <ele>161.910299</ele>
        <time>2021-01-05T22:07:54.507Z</time>
      </trkpt>
      <trkpt lat="49.403608" lon="9.076445">
        <ele>159.102345</ele>
        <time>2021-01-05T22:08:02.635Z</time>
      </trkpt>
      <trkpt lat="49.403281" lon="9.075763">
        <ele>156.225363</ele>
        <time>2021-01-05T22:08:10.857Z</time>
      </trkpt>
      <trkpt lat="49.403190" lon="9.075631">
        <ele>155.572280</ele>
        <time>2021-01-05T22:08:12.610Z</time>
      </trkpt>
      <trkpt lat="49.402805" lon="9.075059">
        <ele>153.325806</ele>
        <time>2021-01-05T22:08:20.582Z</time>
      </trkpt>
      <trkpt lat="49.402696" lon="9.074898">
        <ele>152.725813</ele>
        <time>2021-01-05T22:08:22.858Z</time>
      </trkpt>
      <trkpt lat="49.402331" lon="9.074354">
        <ele>150.707921</ele>
        <time>2021-01-05T22:08:31.076Z</time>
      </trkpt>
      <trkpt lat="49.402024" lon="9.073991">
        <ele>149.170659</ele>
        <time>2021-01-05T22:08:37.302Z</time>
      </trkpt>
      <trkpt lat="49.401914" lon="9.073867">
        <ele>148.629256</ele>
        <time>2021-01-05T22:08:39.662Z</time>
      </trkpt>
      <trkpt lat="49.401848" lon="9.073805">
        <ele>148.322269</ele>
        <time>2021-01-05T22:08:40.880Z</time>
      </trkpt>
      <trkpt lat="49.401432" lon="9.073457">
        <ele>147.179392</ele>
        <time>2021-01-05T22:08:48.999Z</time>
      </trkpt>
      <trkpt lat="49.401383" lon="9.073392">
        <ele>147.049917</ele>
        <time>2021-01-05T22:08:50.191Z</time>
      </trkpt>
      <trkpt lat="49.401289" lon="9.073269">
        <ele>146.802970</ele>
        <time>2021-01-05T22:08:52.460Z</time>
      </trkpt>
      <trkpt lat="49.401084" lon="9.072925">
        <ele>146.195827</ele>
        <time>2021-01-05T22:08:57.987Z</time>
      </trkpt>
      <trkpt lat="49.401034" lon="9.072842">
        <ele>146.048607</ele>
        <time>2021-01-05T22:08:59.235Z</time>
      </trkpt>
      <trkpt lat="49.401019" lon="9.072725">
        <ele>145.893388</ele>
        <time>2021-01-05T22:09:00.498Z</time>
      </trkpt>
      <trkpt lat="49.401036" lon="9.072543">
        <ele>145.654061</ele>
        <time>2021-01-05T22:09:02.533Z</time>
      </trkpt>
      <trkpt lat="49.401066" lon="9.072352">
        <ele>145.398309</ele>
        <time>2021-01-05T22:09:05.130Z</time>
      </trkpt>
      <trkpt lat="49.400971" lon="9.072286">
        <ele>145.189774</ele>
        <time>2021-01-05T22:09:06.918Z</time>
      </trkpt>
      <trkpt lat="49.400743" lon="9.071904">
        <ele>144.515081</ele>
        <time>2021-01-05T22:09:13.634Z</time>
      </trkpt>
      <trkpt lat="49.400642" lon="9.071587">
        <ele>144.303697</ele>
        <time>2021-01-05T22:09:18.511Z</time>
      </trkpt>
      <trkpt lat="49.400505" lon="9.071357">
        <ele>144.264119</ele>
        <time>2021-01-05T22:09:22.301Z</time>
      </trkpt>
      <trkpt lat="49.400389" lon="9.071263">
        <ele>144.238540</ele>
        <time>2021-01-05T22:09:25.166Z</time>
      </trkpt>
      <trkpt lat="49.400276" lon="9.071033">
        <ele>144.201959</ele>
        <time>2021-01-05T22:09:28.726Z</time>
      </trkpt>
      <trkpt lat="49.400165" lon="9.070482">
        <ele>144.128744</ele>
        <time>2021-01-05T22:09:36.565Z</time>
      </trkpt>
      <trkpt lat="49.400124" lon="9.070489">
        <ele>144.120697</ele>
        <time>2021-01-05T22:09:37.613Z</time>
      </trkpt>
      <trkpt lat="49.400093" lon="9.070494">
        <ele>144.114617</ele>
        <time>2021-01-05T22:09:38.477Z</time>
      </trkpt>
      <trkpt lat="49.400045" lon="9.070502">
        <ele>144.105200</ele>
        <time>2021-01-05T22:09:39.837Z</time>
      </trkpt>
      <trkpt lat="49.399932" lon="9.070556">
        <ele>144.082118</ele>
        <time>2021-01-05T22:09:43.063Z</time>
      </trkpt>
      <trkpt lat="49.399919" lon="9.070562">
        <ele>144.079470</ele>
        <time>2021-01-05T22:09:43.416Z</time>
      </trkpt>
      <trkpt lat="49.399808" lon="9.070591">
        <ele>144.057509</ele>
        <time>2021-01-05T22:09:45.930Z</time>
      </trkpt>
      <trkpt lat="49.399754" lon="9.070594">
        <ele>144.046969</ele>
        <time>2021-01-05T22:09:47.382Z</time>
      </trkpt>
      <trkpt lat="49.399544" lon="9.070589">
        <ele>144.006003</ele>
        <time>2021-01-05T22:09:53.217Z</time>
      </trkpt>
      <trkpt lat="49.399325" lon="9.070627">
        <ele>143.993571</ele>
        <time>2021-01-05T22:09:59.291Z</time>
      </trkpt>
      <trkpt lat="49.399072" lon="9.070666">
        <ele>144.034971</ele>
        <time>2021-01-05T22:10:06.640Z</time>
      </trkpt>
      <trkpt lat="49.399010" lon="9.070683">
        <ele>144.045226</ele>
        <time>2021-01-05T22:10:08.411Z</time>
      </trkpt>
      <trkpt lat="49.398932" lon="9.070719">
        <ele>144.058487</ele>
        <time>2021-01-05T22:10:10.866Z</time>
      </trkpt>
      <trkpt lat="49.398614" lon="9.070964">
        <ele>144.116408</ele>
        <time>2021-01-05T22:10:20.959Z</time>
      </trkpt>
      <trkpt lat="49.398403" lon="9.071040">
        <ele>144.151695</ele>
        <time>2021-01-05T22:10:26.962Z</time>
      </trkpt>
      <trkpt lat="49.398128" lon="9.071001">
        <ele>144.196661</ele>
        <time>2021-01-05T22:10:32.942Z</time>
      </trkpt>
      <trkpt lat="49.398000" lon="9.070960">
        <ele>144.217951</ele>
        <time>2021-01-05T22:10:35.508Z</time>
      </trkpt>
      <trkpt lat="49.397972" lon="9.070948">
        <ele>144.222684</ele>
        <time>2021-01-05T22:10:35.981Z</time>
      </trkpt>
      <trkpt lat="49.397694" lon="9.070847">
        <ele>144.269196</ele>
        <time>2021-01-05T22:10:41.592Z</time>
      </trkpt>
      <trkpt lat="49.397595" lon="9.070799">
        <ele>144.172866</ele>
        <time>2021-01-05T22:10:43.400Z</time>
      </trkpt>
      <trkpt lat="49.397524" lon="9.070764">
        <ele>144.083707</ele>
        <time>2021-01-05T22:10:44.892Z</time>
      </trkpt>
      <trkpt lat="49.397267" lon="9.070667">
        <ele>143.767267</ele>
        <time>2021-01-05T22:10:49.839Z</time>
      </trkpt>
      <trkpt lat="49.397218" lon="9.070647">
        <ele>143.706644</ele>
        <time>2021-01-05T22:10:50.727Z</time>
      </trkpt>
      <trkpt lat="49.397162" lon="9.070623">
        <ele>143.637127</ele>
        <time>2021-01-05T22:10:51.908Z</time>
      </trkpt>
      <trkpt lat="49.397076" lon="9.070601">
        <ele>143.532878</ele>
        <time>2021-01-05T22:10:53.571Z</time>
      </trkpt>
      <trkpt lat="49.396998" lon="9.070593">
        <ele>143.439403</ele>
        <time>2021-01-05T22:10:55.124Z</time>
      </trkpt>
      <trkpt lat="49.396941" lon="9.070604">
        <ele>143.370711</ele>
        <time>2021-01-05T22:10:56.111Z</time>
      </trkpt>
      <trkpt lat="49.396900" lon="9.070613">
        <ele>143.321188</ele>
        <time>2021-01-05T22:10:56.825Z</time>
      </trkpt>
      <trkpt lat="49.396812" lon="9.070643">
        <ele>143.213404</ele>
        <time>2021-01-05T22:10:58.545Z</time>
      </trkpt>
      <trkpt lat="49.396731" lon="9.070702">
        <ele>143.106218</ele>
        <time>2021-01-05T22:11:00.283Z</time>
      </trkpt>
      <trkpt lat="49.396717" lon="9.070655">
        <ele>143.065993</ele>
        <time>2021-01-05T22:11:00.861Z</time>
      </trkpt>
      <trkpt lat="49.396654" lon="9.070553">
        <ele>142.956560</ele>
        <time>2021-01-05T22:11:02.609Z</time>
      </trkpt>
      <trkpt lat="49.396643" lon="9.070541">
        <ele>142.940429</ele>
        <time>2021-01-05T22:11:02.804Z</time>
      </trkpt>
      <trkpt lat="49.396610" lon="9.070518">
        <ele>142.897100</ele>
        <time>2021-01-05T22:11:03.398Z</time>
      </trkpt>
      <trkpt lat="49.396580" lon="9.070504">
        <ele>142.859610</ele>
        <time>2021-01-05T22:11:03.915Z</time>
      </trkpt>
      <trkpt lat="49.396517" lon="9.070489">
        <ele>142.783380</ele>
        <time>2021-01-05T22:11:05.161Z</time>
      </trkpt>
      <trkpt lat="49.396418" lon="9.070475">
        <ele>142.664501</ele>
        <time>2021-01-05T22:11:06.982Z</time>
      </trkpt>
      <trkpt lat="49.396191" lon="9.070456">
        <ele>142.392667</ele>
        <time>2021-01-05T22:11:10.996Z</time>
      </trkpt>
      <trkpt lat="49.393116" lon="9.070256">
        <ele>144.638009</ele>
        <time>2021-01-05T22:12:32.871Z</time>
      </trkpt>
      <trkpt lat="49.393012" lon="9.070251">
        <ele>144.727057</ele>
        <time>2021-01-05T22:12:35.940Z</time>
      </trkpt>
      <trkpt lat="49.392874" lon="9.070234">
        <ele>144.845537</ele>
        <time>2021-01-05T22:12:39.793Z</time>
      </trkpt>
      <trkpt lat="49.392718" lon="9.070217">
        <ele>144.979378</ele>
        <time>2021-01-05T22:12:44.103Z</time>
      </trkpt>
      <trkpt lat="49.392563" lon="9.070202">
        <ele>145.112291</ele>
        <time>2021-01-05T22:12:47.797Z</time>
      </trkpt>
      <trkpt lat="49.392462" lon="9.070185">
        <ele>145.199245</ele>
        <time>2021-01-05T22:12:50.007Z</time>
      </trkpt>
      <trkpt lat="49.392334" lon="9.070162">
        <ele>145.210206</ele>
        <time>2021-01-05T22:12:53.135Z</time>
      </trkpt>
      <trkpt lat="49.392159" lon="9.070120">
        <ele>144.906363</ele>
        <time>2021-01-05T22:12:57.112Z</time>
      </trkpt>
      <trkpt lat="49.392021" lon="9.070084">
        <ele>144.666243</ele>
        <time>2021-01-05T22:12:59.779Z</time>
      </trkpt>
      <trkpt lat="49.392057" lon="9.069929">
        <ele>144.482490</ele>
        <time>2021-01-05T22:13:01.918Z</time>
      </trkpt>
      <trkpt lat="49.392091" lon="9.069824">
        <ele>144.351546</ele>
        <time>2021-01-05T22:13:03.940Z</time>
      </trkpt>
      <trkpt lat="49.392146" lon="9.069748">
        <ele>144.224650</ele>
        <time>2021-01-05T22:13:05.327Z</time>
      </trkpt>
      <trkpt lat="49.392187" lon="9.069716">
        <ele>144.145762</ele>
        <time>2021-01-05T22:13:06.211Z</time>
      </trkpt>
      <trkpt lat="49.392273" lon="9.069682">
        <ele>143.993428</ele>
        <time>2021-01-05T22:13:07.956Z</time>
      </trkpt>
      <trkpt lat="49.392369" lon="9.069682">
        <ele>143.828745</ele>
        <time>2021-01-05T22:13:10.012Z</time>
      </trkpt>
      <trkpt lat="49.392412" lon="9.069683">
        <ele>143.754973</ele>
        <time>2021-01-05T22:13:11.128Z</time>
      </trkpt>
      <trkpt lat="49.392724" lon="9.069718">
        <ele>143.218330</ele>
        <time>2021-01-05T22:13:16.923Z</time>
      </trkpt>
      <trkpt lat="49.392965" lon="9.069817">
        <ele>142.790387</ele>
        <time>2021-01-05T22:13:21.322Z</time>
      </trkpt>
      <trkpt lat="49.393152" lon="9.069918">
        <ele>142.450355</ele>
        <time>2021-01-05T22:13:24.727Z</time>
      </trkpt>
      <trkpt lat="49.393256" lon="9.070020">
        <ele>142.238698</ele>
        <time>2021-01-05T22:13:26.719Z</time>
      </trkpt>
      <trkpt lat="49.393293" lon="9.070105">
        <ele>142.086866</ele>
        <time>2021-01-05T22:13:27.748Z</time>
      </trkpt>
      <trkpt lat="49.393375" lon="9.070697">
        <ele>141.028264</ele>
        <time>2021-01-05T22:13:34.101Z</time>
      </trkpt>
      <trkpt lat="49.393358" lon="9.070968">
        <ele>140.552086</ele>
        <time>2021-01-05T22:13:37.123Z</time>
      </trkpt>
      <trkpt lat="49.393207" lon="9.071592">
        <ele>139.387712</ele>
        <time>2021-01-05T22:13:44.549Z</time>
      </trkpt>
      <trkpt lat="49.393132" lon="9.071862">
        <ele>138.874269</ele>
        <time>2021-01-05T22:13:48.094Z</time>
      </trkpt>
      <trkpt lat="49.392831" lon="9.072906">
        <ele>137.345507</ele>
        <time>2021-01-05T22:14:02.488Z</time>
      </trkpt>
      <trkpt lat="49.392742" lon="9.073214">
        <ele>137.330603</ele>
        <time>2021-01-05T22:14:07.236Z</time>
      </trkpt>
      <trkpt lat="49.392686" lon="9.073365">
        <ele>137.322916</ele>
        <time>2021-01-05T22:14:09.592Z</time>
      </trkpt>
      <trkpt lat="49.392516" lon="9.073776">
        <ele>137.301378</ele>
        <time>2021-01-05T22:14:16.761Z</time>
      </trkpt>
      <trkpt lat="49.392300" lon="9.074115">
        <ele>137.280396</ele>
        <time>2021-01-05T22:14:24.143Z</time>
      </trkpt>
      <trkpt lat="49.392173" lon="9.074274">
        <ele>137.269263</ele>
        <time>2021-01-05T22:14:28.022Z</time>
      </trkpt>
      <trkpt lat="49.391983" lon="9.074509">
        <ele>137.252689</ele>
        <time>2021-01-05T22:14:34.045Z</time>
      </trkpt>
      <trkpt lat="49.391969" lon="9.074526">
        <ele>137.251476</ele>
        <time>2021-01-05T22:14:34.442Z</time>
      </trkpt>
      <trkpt lat="49.391701" lon="9.074797">
        <ele>137.403003</ele>
        <time>2021-01-05T22:14:42.628Z</time>
      </trkpt>
      <trkpt lat="49.391117" lon="9.075436">
        <ele>138.820213</ele>
        <time>2021-01-05T22:15:03.596Z</time>
      </trkpt>
      <trkpt lat="49.390608" lon="9.075888">
        <ele>139.982317</ele>
        <time>2021-01-05T22:15:24.046Z</time>
      </trkpt>
      <trkpt lat="49.390405" lon="9.076083">
        <ele>140.455559</ele>
        <time>2021-01-05T22:15:32.389Z</time>
      </trkpt>
      <trkpt lat="49.390271" lon="9.076205">
        <ele>140.763451</ele>
        <time>2021-01-05T22:15:37.395Z</time>
      </trkpt>
      <trkpt lat="49.390211" lon="9.076261">
        <ele>140.809000</ele>
        <time>2021-01-05T22:15:39.634Z</time>
      </trkpt>
      <trkpt lat="49.390150" lon="9.076324">
        <ele>140.832776</ele>
        <time>2021-01-05T22:15:42.183Z</time>
      </trkpt>
      <trkpt lat="49.390124" lon="9.076362">
        <ele>140.844384</ele>
        <time>2021-01-05T22:15:43.415Z</time>
      </trkpt>
      <trkpt lat="49.390106" lon="9.076396">
        <ele>140.853611</ele>
        <time>2021-01-05T22:15:44.273Z</time>
      </trkpt>
      <trkpt lat="49.390064" lon="9.076458">
        <ele>140.872452</ele>
        <time>2021-01-05T22:15:45.611Z</time>
      </trkpt>
      <trkpt lat="49.390059" lon="9.076467">
        <ele>140.874943</ele>
        <time>2021-01-05T22:15:46.553Z</time>
      </trkpt>
      <trkpt lat="49.389831" lon="9.076733">
        <ele>140.967549</ele>
        <time>2021-01-05T22:15:55.564Z</time>
      </trkpt>
      <trkpt lat="49.389628" lon="9.076883">
        <ele>141.040413</ele>
        <time>2021-01-05T22:16:01.919Z</time>
      </trkpt>
      <trkpt lat="49.389565" lon="9.076927">
        <ele>141.062799</ele>
        <time>2021-01-05T22:16:03.743Z</time>
      </trkpt>
      <trkpt lat="49.389544" lon="9.076949">
        <ele>141.071020</ele>
        <time>2021-01-05T22:16:04.505Z</time>
      </trkpt>
      <trkpt lat="49.389519" lon="9.077035">
        <ele>141.090851</ele>
        <time>2021-01-05T22:16:05.882Z</time>
      </trkpt>
      <trkpt lat="49.389522" lon="9.077385">
        <ele>141.164550</ele>
        <time>2021-01-05T22:16:10.807Z</time>
      </trkpt>
      <trkpt lat="49.389432" lon="9.077486">
        <ele>141.200602</ele>
        <time>2021-01-05T22:16:13.774Z</time>
      </trkpt>
      <trkpt lat="49.389430" lon="9.077553">
        <ele>141.214724</ele>
        <time>2021-01-05T22:16:14.504Z</time>
      </trkpt>
      <trkpt lat="49.389387" lon="9.078361">
        <ele>141.286529</ele>
        <time>2021-01-05T22:16:24.359Z</time>
      </trkpt>
      <trkpt lat="49.389490" lon="9.078802">
        <ele>140.626141</ele>
        <time>2021-01-05T22:16:29.517Z</time>
      </trkpt>
      <trkpt lat="49.389564" lon="9.078956">
        <ele>140.356341</ele>
        <time>2021-01-05T22:16:31.504Z</time>
      </trkpt>
      <trkpt lat="49.389658" lon="9.079154">
        <ele>140.010919</ele>
        <time>2021-01-05T22:16:34.201Z</time>
      </trkpt>
      <trkpt lat="49.389758" lon="9.079346">
        <ele>139.664329</ele>
        <time>2021-01-05T22:16:36.981Z</time>
      </trkpt>
      <trkpt lat="49.389891" lon="9.079824">
        <ele>138.931624</ele>
        <time>2021-01-05T22:16:42.901Z</time>
      </trkpt>
      <trkpt lat="49.389889" lon="9.079963">
        <ele>138.735659</ele>
        <time>2021-01-05T22:16:44.358Z</time>
      </trkpt>
      <trkpt lat="49.389873" lon="9.080131">
        <ele>138.496346</ele>
        <time>2021-01-05T22:16:46.478Z</time>
      </trkpt>
      <trkpt lat="49.389780" lon="9.080453">
        <ele>137.999822</ele>
        <time>2021-01-05T22:16:50.719Z</time>
      </trkpt>
      <trkpt lat="49.389714" lon="9.080602">
        <ele>137.745794</ele>
        <time>2021-01-05T22:16:52.960Z</time>
      </trkpt>
      <trkpt lat="49.389679" lon="9.080726">
        <ele>137.555293</ele>
        <time>2021-01-05T22:16:54.988Z</time>
      </trkpt>
      <trkpt lat="49.389676" lon="9.080734">
        <ele>137.542280</ele>
        <time>2021-01-05T22:16:55.485Z</time>
      </trkpt>
      <trkpt lat="49.389421" lon="9.081044">
        <ele>137.944060</ele>
        <time>2021-01-05T22:17:01.698Z</time>
      </trkpt>
      <trkpt lat="49.389053" lon="9.081310">
        <ele>138.586029</ele>
        <time>2021-01-05T22:17:12.544Z</time>
      </trkpt>
      <trkpt lat="49.388890" lon="9.081421">
        <ele>138.867468</ele>
        <time>2021-01-05T22:17:17.012Z</time>
      </trkpt>
      <trkpt lat="49.388743" lon="9.081443">
        <ele>139.100605</ele>
        <time>2021-01-05T22:17:21.909Z</time>
      </trkpt>
      <trkpt lat="49.387674" lon="9.081207">
        <ele>140.833202</ele>
        <time>2021-01-05T22:18:02.484Z</time>
      </trkpt>
      <trkpt lat="49.387237" lon="9.080930">
        <ele>141.621970</ele>
        <time>2021-01-05T22:18:19.152Z</time>
      </trkpt>
      <trkpt lat="49.386730" lon="9.080376">
        <ele>142.660072</ele>
        <time>2021-01-05T22:18:36.376Z</time>
      </trkpt>
      <trkpt lat="49.386589" lon="9.080182">
        <ele>142.975896</ele>
        <time>2021-01-05T22:18:42.133Z</time>
      </trkpt>
      <trkpt lat="49.386548" lon="9.080126">
        <ele>143.067434</ele>
        <time>2021-01-05T22:18:43.057Z</time>
      </trkpt>
      <trkpt lat="49.385559" lon="9.078358">
        <ele>142.070438</ele>
        <time>2021-01-05T22:19:13.828Z</time>
      </trkpt>
      <trkpt lat="49.384658" lon="9.076073">
        <ele>140.462174</ele>
        <time>2021-01-05T22:19:47.733Z</time>
      </trkpt>
      <trkpt lat="49.384429" lon="9.075600">
        <ele>140.105739</ele>
        <time>2021-01-05T22:19:56.026Z</time>
      </trkpt>
      <trkpt lat="49.384417" lon="9.075576">
        <ele>140.087440</ele>
        <time>2021-01-05T22:19:56.400Z</time>
      </trkpt>
      <trkpt lat="49.384275" lon="9.075288">
        <ele>140.122771</ele>
        <time>2021-01-05T22:20:02.228Z</time>
      </trkpt>
      <trkpt lat="49.384110" lon="9.074951">
        <ele>140.339463</ele>
        <time>2021-01-05T22:20:09.034Z</time>
      </trkpt>
      <trkpt lat="49.384050" lon="9.074829">
        <ele>140.418037</ele>
        <time>2021-01-05T22:20:11.652Z</time>
      </trkpt>
      <trkpt lat="49.384011" lon="9.074748">
        <ele>140.469809</ele>
        <time>2021-01-05T22:20:13.209Z</time>
      </trkpt>
      <trkpt lat="49.383827" lon="9.074367">
        <ele>140.713593</ele>
        <time>2021-01-05T22:20:21.532Z</time>
      </trkpt>
      <trkpt lat="49.383721" lon="9.074165">
        <ele>140.846924</ele>
        <time>2021-01-05T22:20:25.869Z</time>
      </trkpt>
      <trkpt lat="49.383248" lon="9.073293">
        <ele>141.428090</ele>
        <time>2021-01-05T22:20:46.433Z</time>
      </trkpt>
      <trkpt lat="49.382669" lon="9.072302">
        <ele>141.767204</ele>
        <time>2021-01-05T22:21:07.483Z</time>
      </trkpt>
      <trkpt lat="49.382072" lon="9.071443">
        <ele>142.087206</ele>
        <time>2021-01-05T22:21:26.452Z</time>
      </trkpt>
      <trkpt lat="49.381576" lon="9.070743">
        <ele>141.921856</ele>
        <time>2021-01-05T22:21:40.593Z</time>
      </trkpt>
      <trkpt lat="49.381145" lon="9.070136">
        <ele>141.706853</ele>
        <time>2021-01-05T22:21:52.627Z</time>
      </trkpt>
      <trkpt lat="49.380884" lon="9.069769">
        <ele>141.576748</ele>
        <time>2021-01-05T22:21:59.814Z</time>
      </trkpt>
      <trkpt lat="49.379840" lon="9.068457">
        <ele>141.126157</ele>
        <time>2021-01-05T22:22:28.791Z</time>
      </trkpt>
      <trkpt lat="49.378461" lon="9.067041">
        <ele>140.503952</ele>
        <time>2021-01-05T22:23:03.254Z</time>
      </trkpt>
      <trkpt lat="49.377701" lon="9.065810">
        <ele>140.136529</ele>
        <time>2021-01-05T22:23:26.117Z</time>
      </trkpt>
      <trkpt lat="49.377378" lon="9.065156">
        <ele>140.138372</ele>
        <time>2021-01-05T22:23:37.767Z</time>
      </trkpt>
      <trkpt lat="49.377040" lon="9.064473">
        <ele>140.140299</ele>
        <time>2021-01-05T22:23:50.355Z</time>
      </trkpt>
      <trkpt lat="49.376019" lon="9.062963">
        <ele>140.535794</ele>
        <time>2021-01-05T22:24:23.673Z</time>
      </trkpt>
      <trkpt lat="49.375978" lon="9.062902">
        <ele>140.559922</ele>
        <time>2021-01-05T22:24:24.873Z</time>
      </trkpt>
      <trkpt lat="49.374312" lon="9.059545">
        <ele>142.129525</ele>
        <time>2021-01-05T22:25:33.082Z</time>
      </trkpt>
      <trkpt lat="49.374078" lon="9.058952">
        <ele>142.470937</ele>
        <time>2021-01-05T22:25:44.380Z</time>
      </trkpt>
      <trkpt lat="49.373610" lon="9.057540">
        <ele>143.251067</ele>
        <time>2021-01-05T22:26:10.504Z</time>
      </trkpt>
      <trkpt lat="49.372653" lon="9.053831">
        <ele>145.413882</ele>
        <time>2021-01-05T22:27:17.957Z</time>
      </trkpt>
      <trkpt lat="49.372192" lon="9.052619">
        <ele>145.993691</ele>
        <time>2021-01-05T22:27:40.777Z</time>
      </trkpt>
      <trkpt lat="49.371618" lon="9.051383">
        <ele>145.972874</ele>
        <time>2021-01-05T22:28:03.124Z</time>
      </trkpt>
      <trkpt lat="49.371144" lon="9.050489">
        <ele>145.780248</ele>
        <time>2021-01-05T22:28:18.680Z</time>
      </trkpt>
      <trkpt lat="49.370629" lon="9.049737">
        <ele>145.551677</ele>
        <time>2021-01-05T22:28:32.727Z</time>
      </trkpt>
      <trkpt lat="49.369668" lon="9.048805">
        <ele>145.125287</ele>
        <time>2021-01-05T22:28:55.431Z</time>
      </trkpt>
      <trkpt lat="49.368861" lon="9.048240">
        <ele>146.617107</ele>
        <time>2021-01-05T22:29:17.958Z</time>
      </trkpt>
      <trkpt lat="49.368129" lon="9.047979">
        <ele>148.565460</ele>
        <time>2021-01-05T22:29:43.305Z</time>
      </trkpt>
      <trkpt lat="49.367557" lon="9.047899">
        <ele>150.480450</ele>
        <time>2021-01-05T22:30:06.618Z</time>
      </trkpt>
      <trkpt lat="49.366883" lon="9.047940">
        <ele>154.252563</ele>
        <time>2021-01-05T22:30:37.484Z</time>
      </trkpt>
      <trkpt lat="49.365812" lon="9.048440">
        <ele>160.233438</ele>
        <time>2021-01-05T22:31:29.994Z</time>
      </trkpt>
      <trkpt lat="49.364927" lon="9.049193">
        <ele>163.834286</ele>
        <time>2021-01-05T22:32:09.792Z</time>
      </trkpt>
      <trkpt lat="49.364638" lon="9.049556">
        <ele>165.163087</ele>
        <time>2021-01-05T22:32:21.767Z</time>
      </trkpt>
      <trkpt lat="49.364062" lon="9.050474">
        <ele>166.323202</ele>
        <time>2021-01-05T22:32:43.457Z</time>
      </trkpt>
      <trkpt lat="49.363620" lon="9.051446">
        <ele>166.569887</ele>
        <time>2021-01-05T22:33:00.697Z</time>
      </trkpt>
      <trkpt lat="49.363357" lon="9.051970">
        <ele>166.707549</ele>
        <time>2021-01-05T22:33:10.018Z</time>
      </trkpt>
      <trkpt lat="49.363270" lon="9.052221">
        <ele>166.529463</ele>
        <time>2021-01-05T22:33:14.335Z</time>
      </trkpt>
      <trkpt lat="49.362846" lon="9.054443">
        <ele>164.515921</ele>
        <time>2021-01-05T22:33:43.059Z</time>
      </trkpt>
      <trkpt lat="49.362795" lon="9.054482">
        <ele>164.439843</ele>
        <time>2021-01-05T22:33:44.425Z</time>
      </trkpt>
      <trkpt lat="49.362804" lon="9.054569">
        <ele>164.363237</ele>
        <time>2021-01-05T22:33:45.310Z</time>
      </trkpt>
      <trkpt lat="49.363126" lon="9.057114">
        <ele>158.589064</ele>
        <time>2021-01-05T22:34:13.781Z</time>
      </trkpt>
      <trkpt lat="49.363290" lon="9.057922">
        <ele>156.485453</ele>
        <time>2021-01-05T22:34:22.697Z</time>
      </trkpt>
      <trkpt lat="49.363378" lon="9.059133">
        <ele>153.357853</ele>
        <time>2021-01-05T22:34:35.573Z</time>
      </trkpt>
      <trkpt lat="49.363490" lon="9.059535">
        <ele>152.235577</ele>
        <time>2021-01-05T22:34:40.306Z</time>
      </trkpt>
      <trkpt lat="49.363923" lon="9.061272">
        <ele>148.952755</ele>
        <time>2021-01-05T22:35:01.457Z</time>
      </trkpt>
      <trkpt lat="49.363867" lon="9.061442">
        <ele>148.669552</ele>
        <time>2021-01-05T22:35:03.860Z</time>
      </trkpt>
      <trkpt lat="49.363722" lon="9.062053">
        <ele>147.702840</ele>
        <time>2021-01-05T22:35:11.906Z</time>
      </trkpt>
      <trkpt lat="49.363720" lon="9.062295">
        <ele>147.343063</ele>
        <time>2021-01-05T22:35:14.859Z</time>
      </trkpt>
      <trkpt lat="49.364139" lon="9.064025">
        <ele>145.245276</ele>
        <time>2021-01-05T22:35:38.327Z</time>
      </trkpt>
      <trkpt lat="49.364339" lon="9.064981">
        <ele>144.171898</ele>
        <time>2021-01-05T22:35:50.613Z</time>
      </trkpt>
      <trkpt lat="49.364523" lon="9.065712">
        <ele>143.272263</ele>
        <time>2021-01-05T22:35:59.942Z</time>
      </trkpt>
      <trkpt lat="49.364761" lon="9.066461">
        <ele>142.291403</ele>
        <time>2021-01-05T22:36:09.881Z</time>
      </trkpt>
      <trkpt lat="49.365234" lon="9.067871">
        <ele>140.533054</ele>
        <time>2021-01-05T22:36:29.577Z</time>
      </trkpt>
      <trkpt lat="49.365681" lon="9.069027">
        <ele>139.582071</ele>
        <time>2021-01-05T22:36:47.051Z</time>
      </trkpt>
      <trkpt lat="49.366959" lon="9.072471">
        <ele>137.552475</ele>
        <time>2021-01-05T22:37:40.285Z</time>
      </trkpt>
      <trkpt lat="49.367023" lon="9.072805">
        <ele>137.685841</ele>
        <time>2021-01-05T22:37:46.237Z</time>
      </trkpt>
      <trkpt lat="49.367035" lon="9.073263">
        <ele>137.861426</ele>
        <time>2021-01-05T22:37:54.121Z</time>
      </trkpt>
      <trkpt lat="49.367038" lon="9.073371">
        <ele>137.902834</ele>
        <time>2021-01-05T22:37:55.613Z</time>
      </trkpt>
      <trkpt lat="49.367041" lon="9.073515">
        <ele>137.958023</ele>
        <time>2021-01-05T22:37:57.881Z</time>
      </trkpt>
      <trkpt lat="49.367043" lon="9.073568">
        <ele>137.978360</ele>
        <time>2021-01-05T22:37:58.779Z</time>
      </trkpt>
      <trkpt lat="49.367019" lon="9.073742">
        <ele>138.046491</ele>
        <time>2021-01-05T22:38:01.825Z</time>
      </trkpt>
      <trkpt lat="49.366970" lon="9.073865">
        <ele>138.101725</ele>
        <time>2021-01-05T22:38:04.624Z</time>
      </trkpt>
      <trkpt lat="49.366895" lon="9.073972">
        <ele>138.161944</ele>
        <time>2021-01-05T22:38:06.958Z</time>
      </trkpt>
      <trkpt lat="49.366775" lon="9.074142">
        <ele>138.257982</ele>
        <time>2021-01-05T22:38:11.339Z</time>
      </trkpt>
      <trkpt lat="49.366533" lon="9.074438">
        <ele>138.439973</ele>
        <time>2021-01-05T22:38:19.669Z</time>
      </trkpt>
      <trkpt lat="49.366499" lon="9.074480">
        <ele>138.465641</ele>
        <time>2021-01-05T22:38:20.808Z</time>
      </trkpt>
      <trkpt lat="49.366466" lon="9.074529">
        <ele>138.492644</ele>
        <time>2021-01-05T22:38:22.591Z</time>
      </trkpt>
      <trkpt lat="49.366459" lon="9.074591">
        <ele>138.516748</ele>
        <time>2021-01-05T22:38:23.610Z</time>
      </trkpt>
      <trkpt lat="49.366530" lon="9.075077">
        <ele>138.670956</ele>
        <time>2021-01-05T22:38:32.650Z</time>
      </trkpt>
      <trkpt lat="49.366557" lon="9.075176">
        <ele>138.697445</ele>
        <time>2021-01-05T22:38:34.234Z</time>
      </trkpt>
      <trkpt lat="49.366925" lon="9.076523">
        <ele>139.057950</ele>
        <time>2021-01-05T22:38:58.963Z</time>
      </trkpt>
      <trkpt lat="49.366975" lon="9.077221">
        <ele>139.231253</ele>
        <time>2021-01-05T22:39:09.329Z</time>
      </trkpt>
      <trkpt lat="49.366977" lon="9.077350">
        <ele>139.263099</ele>
        <time>2021-01-05T22:39:11.142Z</time>
      </trkpt>
      <trkpt lat="49.366979" lon="9.077395">
        <ele>139.274231</ele>
        <time>2021-01-05T22:39:11.754Z</time>
      </trkpt>
      <trkpt lat="49.366987" lon="9.077579">
        <ele>139.231685</ele>
        <time>2021-01-05T22:39:14.240Z</time>
      </trkpt>
      <trkpt lat="49.366989" lon="9.078005">
        <ele>139.059679</ele>
        <time>2021-01-05T22:39:20.205Z</time>
      </trkpt>
      <trkpt lat="49.366976" lon="9.078395">
        <ele>138.902006</ele>
        <time>2021-01-05T22:39:25.656Z</time>
      </trkpt>
      <trkpt lat="49.366959" lon="9.078700">
        <ele>138.778409</ele>
        <time>2021-01-05T22:39:29.790Z</time>
      </trkpt>
      <trkpt lat="49.366835" lon="9.080390">
        <ele>138.114197</ele>
        <time>2021-01-05T22:39:52.786Z</time>
      </trkpt>
      <trkpt lat="49.366768" lon="9.080734">
        <ele>138.010226</ele>
        <time>2021-01-05T22:39:57.882Z</time>
      </trkpt>
      <trkpt lat="49.366700" lon="9.081082">
        <ele>137.905018</ele>
        <time>2021-01-05T22:40:02.942Z</time>
      </trkpt>
      <trkpt lat="49.366628" lon="9.081237">
        <ele>137.849887</ele>
        <time>2021-01-05T22:40:05.760Z</time>
      </trkpt>
      <trkpt lat="49.366706" lon="9.081261">
        <ele>137.814514</ele>
        <time>2021-01-05T22:40:07.483Z</time>
      </trkpt>
      <trkpt lat="49.366748" lon="9.081273">
        <ele>137.795518</ele>
        <time>2021-01-05T22:40:08.393Z</time>
      </trkpt>
      <trkpt lat="49.366802" lon="9.081304">
        <ele>137.769883</ele>
        <time>2021-01-05T22:40:09.610Z</time>
      </trkpt>
      <trkpt lat="49.367206" lon="9.081465">
        <ele>137.584290</ele>
        <time>2021-01-05T22:40:18.817Z</time>
      </trkpt>
      <trkpt lat="49.367256" lon="9.081514">
        <ele>137.557916</ele>
        <time>2021-01-05T22:40:20.059Z</time>
      </trkpt>
      <trkpt lat="49.367249" lon="9.081617">
        <ele>137.527929</ele>
        <time>2021-01-05T22:40:21.739Z</time>
      </trkpt>
      <trkpt lat="49.366985" lon="9.083317">
        <ele>137.191317</ele>
        <time>2021-01-05T22:40:46.729Z</time>
      </trkpt>
      <trkpt lat="49.366726" lon="9.084539">
        <ele>136.999612</ele>
        <time>2021-01-05T22:41:05.679Z</time>
      </trkpt>
      <trkpt lat="49.366598" lon="9.085016">
        <ele>136.929977</ele>
        <time>2021-01-05T22:41:13.260Z</time>
      </trkpt>
      <trkpt lat="49.366466" lon="9.085479">
        <ele>136.869629</ele>
        <time>2021-01-05T22:41:20.736Z</time>
      </trkpt>
      <trkpt lat="49.365837" lon="9.087100">
        <ele>136.644328</ele>
        <time>2021-01-05T22:41:48.448Z</time>
      </trkpt>
      <trkpt lat="49.365303" lon="9.088505">
        <ele>136.216386</ele>
        <time>2021-01-05T22:42:11.627Z</time>
      </trkpt>
      <trkpt lat="49.365403" lon="9.088670">
        <ele>136.154431</ele>
        <time>2021-01-05T22:42:14.644Z</time>
      </trkpt>
      <trkpt lat="49.365308" lon="9.088922">
        <ele>136.074395</ele>
        <time>2021-01-05T22:42:18.750Z</time>
      </trkpt>
      <trkpt lat="49.364236" lon="9.090986">
        <ele>135.750363</ele>
        <time>2021-01-05T22:42:56.144Z</time>
      </trkpt>
      <trkpt lat="49.364094" lon="9.091129">
        <ele>135.733870</ele>
        <time>2021-01-05T22:43:00.088Z</time>
      </trkpt>
      <trkpt lat="49.363958" lon="9.091278">
        <ele>135.717643</ele>
        <time>2021-01-05T22:43:04.476Z</time>
      </trkpt>
      <trkpt lat="49.363219" lon="9.091973">
        <ele>136.135427</ele>
        <time>2021-01-05T22:43:27.125Z</time>
      </trkpt>
      <trkpt lat="49.362356" lon="9.092896">
        <ele>136.857072</ele>
        <time>2021-01-05T22:43:54.884Z</time>
      </trkpt>
      <trkpt lat="49.362223" lon="9.093098">
        <ele>136.921472</ele>
        <time>2021-01-05T22:44:00.195Z</time>
      </trkpt>
      <trkpt lat="49.362165" lon="9.093225">
        <ele>136.910998</ele>
        <time>2021-01-05T22:44:02.214Z</time>
      </trkpt>
      <trkpt lat="49.361985" lon="9.093753">
        <ele>136.870754</ele>
        <time>2021-01-05T22:44:11.551Z</time>
      </trkpt>
      <trkpt lat="49.361193" lon="9.094916">
        <ele>136.757127</ele>
        <time>2021-01-05T22:44:35.869Z</time>
      </trkpt>
      <trkpt lat="49.360566" lon="9.096169">
        <ele>136.312382</ele>
        <time>2021-01-05T22:44:57.495Z</time>
      </trkpt>
      <trkpt lat="49.360410" lon="9.096367">
        <ele>136.215079</ele>
        <time>2021-01-05T22:45:01.761Z</time>
      </trkpt>
      <trkpt lat="49.359986" lon="9.096636">
        <ele>135.994526</ele>
        <time>2021-01-05T22:45:11.891Z</time>
      </trkpt>
      <trkpt lat="49.359741" lon="9.096780">
        <ele>135.880968</ele>
        <time>2021-01-05T22:45:17.583Z</time>
      </trkpt>
      <trkpt lat="49.359651" lon="9.096833">
        <ele>135.891258</ele>
        <time>2021-01-05T22:45:19.899Z</time>
      </trkpt>
      <trkpt lat="49.358892" lon="9.097277">
        <ele>135.977963</ele>
        <time>2021-01-05T22:45:38.628Z</time>
      </trkpt>
      <trkpt lat="49.358333" lon="9.097466">
        <ele>136.039067</ele>
        <time>2021-01-05T22:45:52.357Z</time>
      </trkpt>
      <trkpt lat="49.357850" lon="9.097538">
        <ele>136.111953</ele>
        <time>2021-01-05T22:46:04.698Z</time>
      </trkpt>
      <trkpt lat="49.356418" lon="9.097471">
        <ele>136.424690</ele>
        <time>2021-01-05T22:46:39.206Z</time>
      </trkpt>
      <trkpt lat="49.356380" lon="9.097469">
        <ele>136.432990</ele>
        <time>2021-01-05T22:46:40.407Z</time>
      </trkpt>
      <trkpt lat="49.356366" lon="9.097634">
        <ele>136.456648</ele>
        <time>2021-01-05T22:46:42.653Z</time>
      </trkpt>
      <trkpt lat="49.356281" lon="9.098586">
        <ele>136.371731</ele>
        <time>2021-01-05T22:46:57.232Z</time>
      </trkpt>
      <trkpt lat="49.356248" lon="9.098958">
        <ele>136.334110</ele>
        <time>2021-01-05T22:47:02.444Z</time>
      </trkpt>
      <trkpt lat="49.355887" lon="9.099020">
        <ele>136.278226</ele>
        <time>2021-01-05T22:47:15.588Z</time>
      </trkpt>
      <trkpt lat="49.355817" lon="9.099032">
        <ele>136.267390</ele>
        <time>2021-01-05T22:47:18.328Z</time>
      </trkpt>
      <trkpt lat="49.355200" lon="9.099131">
        <ele>136.199960</ele>
        <time>2021-01-05T22:47:40.681Z</time>
      </trkpt>
      <trkpt lat="49.354647" lon="9.099220">
        <ele>136.277875</ele>
        <time>2021-01-05T22:48:01.270Z</time>
      </trkpt>
      <trkpt lat="49.354574" lon="9.099239">
        <ele>136.288250</ele>
        <time>2021-01-05T22:48:04.002Z</time>
      </trkpt>
      <trkpt lat="49.354330" lon="9.099224">
        <ele>136.322468</ele>
        <time>2021-01-05T22:48:09.894Z</time>
      </trkpt>
      <trkpt lat="49.353980" lon="9.099242">
        <ele>136.371541</ele>
        <time>2021-01-05T22:48:18.284Z</time>
      </trkpt>
      <trkpt lat="49.352613" lon="9.099552">
        <ele>136.926423</ele>
        <time>2021-01-05T22:48:52.199Z</time>
      </trkpt>
      <trkpt lat="49.352499" lon="9.099588">
        <ele>136.989297</ele>
        <time>2021-01-05T22:48:55.160Z</time>
      </trkpt>
      <trkpt lat="49.352311" lon="9.099784">
        <ele>137.112064</ele>
        <time>2021-01-05T22:49:00.661Z</time>
      </trkpt>
      <trkpt lat="49.351946" lon="9.099779">
        <ele>137.309249</ele>
        <time>2021-01-05T22:49:09.928Z</time>
      </trkpt>
      <trkpt lat="49.351887" lon="9.099754">
        <ele>137.342314</ele>
        <time>2021-01-05T22:49:11.659Z</time>
      </trkpt>
      <trkpt lat="49.351798" lon="9.099669">
        <ele>137.398938</ele>
        <time>2021-01-05T22:49:14.456Z</time>
      </trkpt>
      <trkpt lat="49.351846" lon="9.099549">
        <ele>137.480335</ele>
        <time>2021-01-05T22:49:17.024Z</time>
      </trkpt>
      <trkpt lat="49.351858" lon="9.099484">
        <ele>137.523931</ele>
        <time>2021-01-05T22:49:18.183Z</time>
      </trkpt>
      <trkpt lat="49.351906" lon="9.099214">
        <ele>137.704534</ele>
        <time>2021-01-05T22:49:23.479Z</time>
      </trkpt>
      <trkpt lat="49.351952" lon="9.098929">
        <ele>137.894005</ele>
        <time>2021-01-05T22:49:28.969Z</time>
      </trkpt>
      <trkpt lat="49.351990" lon="9.098626">
        <ele>138.093121</ele>
        <time>2021-01-05T22:49:34.908Z</time>
      </trkpt>
      <trkpt lat="49.352004" lon="9.098322">
        <ele>138.289781</ele>
        <time>2021-01-05T22:49:41.103Z</time>
      </trkpt>
      <trkpt lat="49.352011" lon="9.098182">
        <ele>138.380389</ele>
        <time>2021-01-05T22:49:43.716Z</time>
      </trkpt>
      <trkpt lat="49.351992" lon="9.097521">
        <ele>138.807346</ele>
        <time>2021-01-05T22:49:55.493Z</time>
      </trkpt>
      <trkpt lat="49.351959" lon="9.097385">
        <ele>138.900997</ele>
        <time>2021-01-05T22:49:58.165Z</time>
      </trkpt>
      <trkpt lat="49.351938" lon="9.097298">
        <ele>138.960868</ele>
        <time>2021-01-05T22:49:59.907Z</time>
      </trkpt>
      <trkpt lat="49.351860" lon="9.096897">
        <ele>139.177762</ele>
        <time>2021-01-05T22:50:06.011Z</time>
      </trkpt>
      <trkpt lat="49.351764" lon="9.096504">
        <ele>139.078047</ele>
        <time>2021-01-05T22:50:12.257Z</time>
      </trkpt>
      <trkpt lat="49.351792" lon="9.096394">
        <ele>139.049990</ele>
        <time>2021-01-05T22:50:13.967Z</time>
      </trkpt>
      <trkpt lat="49.351923" lon="9.096300">
        <ele>138.997252</ele>
        <time>2021-01-05T22:50:17.788Z</time>
      </trkpt>
      <trkpt lat="49.351979" lon="9.096543">
        <ele>138.936015</ele>
        <time>2021-01-05T22:50:21.006Z</time>
      </trkpt>
      <trkpt lat="49.352044" lon="9.096869">
        <ele>138.855020</ele>
        <time>2021-01-05T22:50:26.384Z</time>
      </trkpt>
      <trkpt lat="49.352086" lon="9.097105">
        <ele>138.796899</ele>
        <time>2021-01-05T22:50:29.349Z</time>
      </trkpt>
      <trkpt lat="49.352125" lon="9.097341">
        <ele>138.739056</ele>
        <time>2021-01-05T22:50:33.315Z</time>
      </trkpt>
      <trkpt lat="49.352143" lon="9.097462">
        <ele>138.709570</ele>
        <time>2021-01-05T22:50:34.831Z</time>
      </trkpt>
      <trkpt lat="49.352188" lon="9.097882">
        <ele>138.608449</ele>
        <time>2021-01-05T22:50:40.451Z</time>
      </trkpt>
      <trkpt lat="49.352219" lon="9.098340">
        <ele>138.499322</ele>
        <time>2021-01-05T22:50:46.036Z</time>
      </trkpt>
      <trkpt lat="49.352231" lon="9.098827">
        <ele>138.384375</ele>
        <time>2021-01-05T22:50:51.905Z</time>
      </trkpt>
      <trkpt lat="49.352227" lon="9.099526">
        <ele>138.219501</ele>
        <time>2021-01-05T22:51:00.664Z</time>
      </trkpt>
      <trkpt lat="49.352186" lon="9.100238">
        <ele>138.050913</ele>
        <time>2021-01-05T22:51:10.733Z</time>
      </trkpt>
      <trkpt lat="49.352040" lon="9.101777">
        <ele>138.394110</ele>
        <time>2021-01-05T22:51:36.250Z</time>
      </trkpt>
      <trkpt lat="49.351909" lon="9.102849">
        <ele>139.046729</ele>
        <time>2021-01-05T22:51:55.520Z</time>
      </trkpt>
      <trkpt lat="49.351746" lon="9.104142">
        <ele>139.682306</ele>
        <time>2021-01-05T22:52:17.990Z</time>
      </trkpt>
      <trkpt lat="49.351714" lon="9.104369">
        <ele>139.750132</ele>
        <time>2021-01-05T22:52:21.522Z</time>
      </trkpt>
      <trkpt lat="49.351714" lon="9.104369">
        <ele>139.750132</ele>
        <time>2021-01-05T22:52:21.542Z</time>
      </trkpt>
      <trkpt lat="49.351714" lon="9.104369">
        <ele>139.750132</ele>
        <time>2021-01-05T22:52:21.563Z</time>
      </trkpt>
      <trkpt lat="49.351691" lon="9.104512">
        <ele>139.793146</ele>
        <time>2021-01-05T22:52:24.010Z</time>
      </trkpt>
      <trkpt lat="49.351770" lon="9.104583">
        <ele>139.834185</ele>
        <time>2021-01-05T22:52:26.391Z</time>
      </trkpt>
      <trkpt lat="49.351798" lon="9.104764">
        <ele>139.888513</ele>
        <time>2021-01-05T22:52:29.115Z</time>
      </trkpt>
      <trkpt lat="49.351830" lon="9.104719">
        <ele>139.907968</ele>
        <time>2021-01-05T22:52:29.962Z</time>
      </trkpt>
      <trkpt lat="49.351843" lon="9.104465">
        <ele>139.982373</ele>
        <time>2021-01-05T22:52:34.168Z</time>
      </trkpt>
      <trkpt lat="49.351867" lon="9.104285">
        <ele>140.036028</ele>
        <time>2021-01-05T22:52:37.150Z</time>
      </trkpt>
      <trkpt lat="49.351682" lon="9.104217">
        <ele>140.121309</ele>
        <time>2021-01-05T22:52:41.500Z</time>
      </trkpt>
      <trkpt lat="49.351647" lon="9.104205">
        <ele>140.137386</ele>
        <time>2021-01-05T22:52:42.436Z</time>
      </trkpt>
      <trkpt lat="49.351584" lon="9.104182">
        <ele>140.166417</ele>
        <time>2021-01-05T22:52:44.101Z</time>
      </trkpt>
      <trkpt lat="49.351543" lon="9.104139">
        <ele>140.188678</ele>
        <time>2021-01-05T22:52:45.338Z</time>
      </trkpt>
      <trkpt lat="49.351588" lon="9.104024">
        <ele>140.227855</ele>
        <time>2021-01-05T22:52:47.030Z</time>
      </trkpt>
      <trkpt lat="49.351619" lon="9.103399">
        <ele>140.349782</ele>
        <time>2021-01-05T22:52:56.253Z</time>
      </trkpt>
      <trkpt lat="49.351635" lon="9.103077">
        <ele>140.358807</ele>
        <time>2021-01-05T22:53:01.392Z</time>
      </trkpt>
      <trkpt lat="49.351657" lon="9.102849">
        <ele>140.365249</ele>
        <time>2021-01-05T22:53:04.355Z</time>
      </trkpt>
      <trkpt lat="49.351213" lon="9.102675">
        <ele>140.384909</ele>
        <time>2021-01-05T22:53:14.900Z</time>
      </trkpt>
      <trkpt lat="49.350751" lon="9.102521">
        <ele>140.405193</ele>
        <time>2021-01-05T22:53:25.876Z</time>
      </trkpt>
      <trkpt lat="49.350186" lon="9.102336">
        <ele>140.341105</ele>
        <time>2021-01-05T22:53:39.134Z</time>
      </trkpt>
      <trkpt lat="49.350052" lon="9.102309">
        <ele>140.292641</ele>
        <time>2021-01-05T22:53:42.354Z</time>
      </trkpt>
      <trkpt lat="49.349735" lon="9.102249">
        <ele>140.178103</ele>
        <time>2021-01-05T22:53:49.885Z</time>
      </trkpt>
      <trkpt lat="49.349546" lon="9.102223">
        <ele>140.110056</ele>
        <time>2021-01-05T22:53:54.280Z</time>
      </trkpt>
      <trkpt lat="49.349553" lon="9.102130">
        <ele>140.088186</ele>
        <time>2021-01-05T22:53:55.989Z</time>
      </trkpt>
      <trkpt lat="49.349485" lon="9.102082">
        <ele>140.061346</ele>
        <time>2021-01-05T22:53:57.973Z</time>
      </trkpt>
      <trkpt lat="49.349480" lon="9.101596">
        <ele>139.947799</ele>
        <time>2021-01-05T22:54:06.760Z</time>
      </trkpt>
      <trkpt lat="49.348814" lon="9.101404">
        <ele>139.591840</ele>
        <time>2021-01-05T22:54:24.774Z</time>
      </trkpt>
      <trkpt lat="49.347566" lon="9.101285">
        <ele>138.426966</ele>
        <time>2021-01-05T22:54:56.955Z</time>
      </trkpt>
      <trkpt lat="49.346945" lon="9.101184">
        <ele>138.124932</ele>
        <time>2021-01-05T22:55:13.787Z</time>
      </trkpt>
      <trkpt lat="49.345640" lon="9.100973">
        <ele>138.245205</ele>
        <time>2021-01-05T22:55:52.721Z</time>
      </trkpt>
      <trkpt lat="49.345449" lon="9.101209">
        <ele>138.290705</ele>
        <time>2021-01-05T22:55:59.190Z</time>
      </trkpt>
      <trkpt lat="49.345114" lon="9.101783">
        <ele>138.696397</ele>
        <time>2021-01-05T22:56:12.397Z</time>
      </trkpt>
      <trkpt lat="49.345052" lon="9.101799">
        <ele>138.747199</ele>
        <time>2021-01-05T22:56:14.072Z</time>
      </trkpt>
      <trkpt lat="49.345039" lon="9.101899">
        <ele>138.800881</ele>
        <time>2021-01-05T22:56:15.819Z</time>
      </trkpt>
      <trkpt lat="49.344934" lon="9.101931">
        <ele>138.887382</ele>
        <time>2021-01-05T22:56:18.861Z</time>
      </trkpt>
      <trkpt lat="49.344130" lon="9.102930">
        <ele>139.722462</ele>
        <time>2021-01-05T22:56:44.897Z</time>
      </trkpt>
      <trkpt lat="49.343915" lon="9.103352">
        <ele>139.961627</ele>
        <time>2021-01-05T22:56:53.662Z</time>
      </trkpt>
      <trkpt lat="49.343883" lon="9.103662">
        <ele>140.101751</ele>
        <time>2021-01-05T22:56:58.948Z</time>
      </trkpt>
      <trkpt lat="49.343892" lon="9.103838">
        <ele>140.180568</ele>
        <time>2021-01-05T22:57:01.492Z</time>
      </trkpt>
      <trkpt lat="49.344037" lon="9.104417">
        <ele>140.457499</ele>
        <time>2021-01-05T22:57:11.258Z</time>
      </trkpt>
      <trkpt lat="49.344116" lon="9.105009">
        <ele>140.727281</ele>
        <time>2021-01-05T22:57:20.914Z</time>
      </trkpt>
      <trkpt lat="49.344045" lon="9.105784">
        <ele>141.174033</ele>
        <time>2021-01-05T22:57:34.327Z</time>
      </trkpt>
      <trkpt lat="49.343801" lon="9.106095">
        <ele>141.559206</ele>
        <time>2021-01-05T22:57:42.707Z</time>
      </trkpt>
      <trkpt lat="49.343577" lon="9.106632">
        <ele>142.063720</ele>
        <time>2021-01-05T22:57:53.995Z</time>
      </trkpt>
      <trkpt lat="49.343372" lon="9.107366">
        <ele>142.695597</ele>
        <time>2021-01-05T22:58:08.079Z</time>
      </trkpt>
      <trkpt lat="49.343366" lon="9.107534">
        <ele>142.828724</ele>
        <time>2021-01-05T22:58:11.545Z</time>
      </trkpt>
      <trkpt lat="49.343066" lon="9.108489">
        <ele>143.614553</ele>
        <time>2021-01-05T22:58:30.875Z</time>
      </trkpt>
      <trkpt lat="49.342777" lon="9.109432">
        <ele>144.356996</ele>
        <time>2021-01-05T22:58:49.649Z</time>
      </trkpt>
      <trkpt lat="49.342631" lon="9.109934">
        <ele>144.748657</ele>
        <time>2021-01-05T22:58:59.061Z</time>
      </trkpt>
      <trkpt lat="49.342480" lon="9.110629">
        <ele>145.197207</ele>
        <time>2021-01-05T22:59:10.805Z</time>
      </trkpt>
      <trkpt lat="49.342363" lon="9.111720">
        <ele>145.642523</ele>
        <time>2021-01-05T22:59:27.432Z</time>
      </trkpt>
      <trkpt lat="49.342498" lon="9.112658">
        <ele>146.029413</ele>
        <time>2021-01-05T22:59:43.192Z</time>
      </trkpt>
      <trkpt lat="49.342484" lon="9.113438">
        <ele>146.463458</ele>
        <time>2021-01-05T22:59:56.748Z</time>
      </trkpt>
      <trkpt lat="49.342561" lon="9.113768">
        <ele>146.734621</ele>
        <time>2021-01-05T23:00:02.116Z</time>
      </trkpt>
      <trkpt lat="49.342385" lon="9.113960">
        <ele>146.990999</ele>
        <time>2021-01-05T23:00:08.598Z</time>
      </trkpt>
      <trkpt lat="49.342226" lon="9.114370">
        <ele>147.360106</ele>
        <time>2021-01-05T23:00:17.078Z</time>
      </trkpt>
      <trkpt lat="49.342257" lon="9.116492">
        <ele>148.482761</ele>
        <time>2021-01-05T23:00:55.013Z</time>
      </trkpt>
      <trkpt lat="49.342312" lon="9.117059">
        <ele>148.573486</ele>
        <time>2021-01-05T23:01:03.875Z</time>
      </trkpt>
      <trkpt lat="49.342513" lon="9.117458">
        <ele>148.653308</ele>
        <time>2021-01-05T23:01:11.134Z</time>
      </trkpt>
      <trkpt lat="49.342702" lon="9.117998">
        <ele>148.750320</ele>
        <time>2021-01-05T23:01:19.412Z</time>
      </trkpt>
      <trkpt lat="49.342739" lon="9.118301">
        <ele>148.732750</ele>
        <time>2021-01-05T23:01:23.394Z</time>
      </trkpt>
      <trkpt lat="49.343102" lon="9.119247">
        <ele>148.020541</ele>
        <time>2021-01-05T23:01:37.096Z</time>
      </trkpt>
      <trkpt lat="49.343579" lon="9.120323">
        <ele>147.176274</ele>
        <time>2021-01-05T23:01:53.127Z</time>
      </trkpt>
      <trkpt lat="49.343998" lon="9.121164">
        <ele>146.674687</ele>
        <time>2021-01-05T23:02:06.666Z</time>
      </trkpt>
      <trkpt lat="49.344168" lon="9.121553">
        <ele>146.482104</ele>
        <time>2021-01-05T23:02:12.823Z</time>
      </trkpt>
      <trkpt lat="49.344418" lon="9.122126">
        <ele>146.198574</ele>
        <time>2021-01-05T23:02:21.929Z</time>
      </trkpt>
      <trkpt lat="49.344962" lon="9.123239">
        <ele>145.811863</ele>
        <time>2021-01-05T23:02:41.157Z</time>
      </trkpt>
      <trkpt lat="49.345217" lon="9.123825">
        <ele>145.751956</ele>
        <time>2021-01-05T23:02:51.370Z</time>
      </trkpt>
      <trkpt lat="49.345365" lon="9.124232">
        <ele>145.712332</ele>
        <time>2021-01-05T23:02:57.816Z</time>
      </trkpt>
      <trkpt lat="49.345409" lon="9.124540">
        <ele>145.685526</ele>
        <time>2021-01-05T23:03:02.513Z</time>
      </trkpt>
      <trkpt lat="49.345574" lon="9.125060">
        <ele>145.636356</ele>
        <time>2021-01-05T23:03:10.747Z</time>
      </trkpt>
      <trkpt lat="49.345689" lon="9.125454">
        <ele>145.706560</ele>
        <time>2021-01-05T23:03:17.053Z</time>
      </trkpt>
      <trkpt lat="49.345780" lon="9.125765">
        <ele>145.797550</ele>
        <time>2021-01-05T23:03:21.822Z</time>
      </trkpt>
      <trkpt lat="49.345948" lon="9.126192">
        <ele>145.930682</ele>
        <time>2021-01-05T23:03:29.410Z</time>
      </trkpt>
      <trkpt lat="49.346030" lon="9.126523">
        <ele>146.025193</ele>
        <time>2021-01-05T23:03:35.240Z</time>
      </trkpt>
      <trkpt lat="49.345954" lon="9.127307">
        <ele>146.236739</ele>
        <time>2021-01-05T23:03:47.689Z</time>
      </trkpt>
      <trkpt lat="49.346140" lon="9.129035">
        <ele>147.006736</ele>
        <time>2021-01-05T23:04:16.906Z</time>
      </trkpt>
      <trkpt lat="49.346269" lon="9.129790">
        <ele>147.399418</ele>
        <time>2021-01-05T23:04:29.985Z</time>
      </trkpt>
      <trkpt lat="49.346328" lon="9.130078">
        <ele>147.551304</ele>
        <time>2021-01-05T23:04:35.080Z</time>
      </trkpt>
      <trkpt lat="49.346420" lon="9.130305">
        <ele>147.685801</ele>
        <time>2021-01-05T23:04:39.432Z</time>
      </trkpt>
      <trkpt lat="49.346706" lon="9.130909">
        <ele>147.751271</ele>
        <time>2021-01-05T23:04:51.651Z</time>
      </trkpt>
      <trkpt lat="49.347167" lon="9.131681">
        <ele>147.751271</ele>
        <time>2021-01-05T23:05:08.267Z</time>
      </trkpt>
    </trkseg>
  </trk>
</gpx>